Observation data for New Home on 01/10/2018      Previous  Date  Next       Current Mesonet Observations  Soil Data  Daily Summary Page  Observations in Plain Language
KNH1 100600Z 22011KT 09/M00 A2989 RMK A01 T00921002  RH  052%=      5-min Rain = 0
KNH1 100601Z 22011KT 09/M00 A2989 RMK A01 T00911001  RH  052%=      5-min Rain = 0
KNH1 100602Z 22010KT 09/M00 A2989 RMK A01 T00911001  RH  052%=      5-min Rain = 0
KNH1 100603Z 22010KT 09/M00 A2989 RMK A01 T00911002  RH  052%=      5-min Rain = 0
KNH1 100604Z 22009KT 09/M00 A2989 RMK A01 T00911001  RH  052%=      5-min Rain = 0
KNH1 100605Z 22010KT 09/M00 A2989 RMK A01 T00901002  RH  052%=      5-min Rain = 0
KNH1 100606Z 22009KT 09/M00 A2989 RMK A01 T00891002  RH  053%=      5-min Rain = 0
KNH1 100607Z 22010KT 09/M00 A2989 RMK A01 T00881003  RH  053%=      5-min Rain = 0
KNH1 100608Z 22009KT 09/M00 A2989 RMK A01 T00881003  RH  053%=      5-min Rain = 0
KNH1 100609Z 22010KT 09/M00 A2989 RMK A01 T00871003  RH  053%=      5-min Rain = 0
KNH1 100610Z 22010KT 09/M00 A2988 RMK A01 T00871003  RH  053%=      5-min Rain = 0
KNH1 100611Z 21009KT 09/M00 A2988 RMK A01 T00871002  RH  054%=      5-min Rain = 0
KNH1 100612Z 21009KT 09/M00 A2988 RMK A01 T00861003  RH  054%=      5-min Rain = 0
KNH1 100613Z 21009KT 09/M00 A2988 RMK A01 T00851003  RH  054%=      5-min Rain = 0
KNH1 100614Z 21009KT 08/M00 A2988 RMK A01 T00841003  RH  054%=      5-min Rain = 0
KNH1 100615Z 21009KT 08/M00 A2988 RMK A01 T00841003  RH  054%=      5-min Rain = 0
KNH1 100616Z 21009KT 08/M00 A2988 RMK A01 T00841003  RH  054%=      5-min Rain = 0
KNH1 100617Z 21009KT 08/M00 A2988 RMK A01 T00841003  RH  054%=      5-min Rain = 0
KNH1 100618Z 22008KT 08/M00 A2988 RMK A01 T00841003  RH  054%=      5-min Rain = 0
KNH1 100619Z 21009KT 08/M00 A2987 RMK A01 T00831004  RH  054%=      5-min Rain = 0
KNH1 100620Z 21008KT 08/M00 A2987 RMK A01 T00831004  RH  055%=      5-min Rain = 0
KNH1 100621Z 22009KT 08/M00 A2987 RMK A01 T00821004  RH  055%=      5-min Rain = 0
KNH1 100622Z 21008KT 08/M00 A2987 RMK A01 T00811004  RH  055%=      5-min Rain = 0
KNH1 100623Z 21008KT 08/M00 A2987 RMK A01 T00811004  RH  055%=      5-min Rain = 0
KNH1 100624Z 21008KT 08/M01 A2987 RMK A01 T00801005  RH  055%=      5-min Rain = 0
KNH1 100625Z 21009KT 08/M01 A2987 RMK A01 T00791005  RH  055%=      5-min Rain = 0
KNH1 100626Z 21009KT 08/M01 A2987 RMK A01 T00781005  RH  056%=      5-min Rain = 0
KNH1 100627Z 21009KT 08/M01 A2987 RMK A01 T00781005  RH  056%=      5-min Rain = 0
KNH1 100628Z 21009KT 08/M01 A2987 RMK A01 T00771005  RH  056%=      5-min Rain = 0
KNH1 100629Z 21009KT 08/M01 A2987 RMK A01 T00771005  RH  056%=      5-min Rain = 0
KNH1 100630Z 21009KT 08/M01 A2987 RMK A01 T00771005  RH  056%=      5-min Rain = 0
KNH1 100631Z 21009KT 08/M01 A2987 RMK A01 T00771005  RH  056%=      5-min Rain = 0
KNH1 100632Z 21009KT 08/M01 A2987 RMK A01 T00761005  RH  056%=      5-min Rain = 0
KNH1 100633Z 21009KT 08/M01 A2987 RMK A01 T00761005  RH  056%=      5-min Rain = 0
KNH1 100634Z 21009KT 08/M01 A2987 RMK A01 T00761005  RH  057%=      5-min Rain = 0
KNH1 100635Z 21009KT 08/M01 A2987 RMK A01 T00751005  RH  057%=      5-min Rain = 0
KNH1 100636Z 21009KT 08/M01 A2986 RMK A01 T00751005  RH  057%=      5-min Rain = 0
KNH1 100637Z 21009KT 08/M01 A2986 RMK A01 T00751005  RH  057%=      5-min Rain = 0
KNH1 100638Z 21008KT 08/M01 A2986 RMK A01 T00761005  RH  057%=      5-min Rain = 0
KNH1 100639Z 21009KT 08/M00 A2986 RMK A01 T00771004  RH  057%=      5-min Rain = 0
KNH1 100640Z 20009KT 08/M00 A2986 RMK A01 T00771004  RH  057%=      5-min Rain = 0
KNH1 100641Z 20009KT 08/M00 A2986 RMK A01 T00781003  RH  056%=      5-min Rain = 0
KNH1 100642Z 20009KT 08/M00 A2986 RMK A01 T00781004  RH  056%=      5-min Rain = 0
KNH1 100643Z 20009KT 08/M00 A2986 RMK A01 T00781004  RH  056%=      5-min Rain = 0
KNH1 100644Z 20009KT 08/M01 A2986 RMK A01 T00771005  RH  056%=      5-min Rain = 0
KNH1 100645Z 20009KT 08/M01 A2986 RMK A01 T00761005  RH  056%=      5-min Rain = 0
KNH1 100646Z 20009KT 08/M01 A2986 RMK A01 T00751005  RH  057%=      5-min Rain = 0
KNH1 100647Z 21010KT 08/M00 A2986 RMK A01 T00751004  RH  057%=      5-min Rain = 0
KNH1 100648Z 21010KT 08/M00 A2986 RMK A01 T00761004  RH  057%=      5-min Rain = 0
KNH1 100649Z 21010KT 08/M00 A2986 RMK A01 T00761004  RH  057%=      5-min Rain = 0
KNH1 100650Z 21010KT 08/M00 A2986 RMK A01 T00761004  RH  057%=      5-min Rain = 0
KNH1 100651Z 20010KT 08/M00 A2986 RMK A01 T00761004  RH  057%=      5-min Rain = 0
KNH1 100652Z 21010KT 08/M00 A2986 RMK A01 T00771003  RH  057%=      5-min Rain = 0
KNH1 100653Z 21010KT 08/M00 A2986 RMK A01 T00781002  RH  057%=      5-min Rain = 0
KNH1 100654Z 21011KT 08/M00 A2986 RMK A01 T00781003  RH  057%=      5-min Rain = 0
KNH1 100655Z 21011KT 08/M00 A2986 RMK A01 T00801002  RH  056%=      5-min Rain = 0
KNH1 100656Z 20010KT 08/M00 A2986 RMK A01 T00791003  RH  056%=      5-min Rain = 0
KNH1 100657Z 21011KT 08/M00 A2986 RMK A01 T00791003  RH  056%=      5-min Rain = 0
KNH1 100658Z 21011KT 08/M00 A2986 RMK A01 T00791003  RH  056%=      5-min Rain = 0
KNH1 100659Z 21011KT 08/M00 A2986 RMK A01 T00781003  RH  056%=      5-min Rain = 0
KNH1 100700Z 21009KT 08/M00 A2986 RMK A01 T00781003  RH  056%=      5-min Rain = 0
KNH1 100701Z 21009KT 08/M00 A2986 RMK A01 T00781003  RH  056%=      5-min Rain = 0
KNH1 100702Z 21009KT 08/M00 A2986 RMK A01 T00781003  RH  056%=      5-min Rain = 0
KNH1 100703Z 21010KT 08/M00 A2986 RMK A01 T00771004  RH  056%=      5-min Rain = 0
KNH1 100704Z 21009KT 08/M00 A2986 RMK A01 T00781003  RH  057%=      5-min Rain = 0
KNH1 100705Z 21010KT 08/M00 A2986 RMK A01 T00781003  RH  057%=      5-min Rain = 0
KNH1 100706Z 21009KT 08/M00 A2986 RMK A01 T00781003  RH  057%=      5-min Rain = 0
KNH1 100707Z 21009KT 08/M00 A2986 RMK A01 T00781003  RH  057%=      5-min Rain = 0
KNH1 100708Z 21009KT 08/M00 A2986 RMK A01 T00771003  RH  057%=      5-min Rain = 0
KNH1 100709Z 21009KT 08/M00 A2986 RMK A01 T00771002  RH  057%=      5-min Rain = 0
KNH1 100710Z 22009KT 08/M00 A2986 RMK A01 T00781002  RH  057%=      5-min Rain = 0
KNH1 100711Z 22009KT 08/M00 A2986 RMK A01 T00781002  RH  057%=      5-min Rain = 0
KNH1 100712Z 22010KT 08/M00 A2986 RMK A01 T00781002  RH  057%=      5-min Rain = 0
KNH1 100713Z 22010KT 08/M00 A2986 RMK A01 T00781002  RH  057%=      5-min Rain = 0
KNH1 100714Z 22010KT 08/M00 A2986 RMK A01 T00791002  RH  057%=      5-min Rain = 0
KNH1 100715Z 22010KT 08/M00 A2986 RMK A01 T00791002  RH  057%=      5-min Rain = 0
KNH1 100716Z 22009KT 08/M00 A2986 RMK A01 T00801001  RH  057%=      5-min Rain = 0
KNH1 100717Z 22010KT 08/M00 A2986 RMK A01 T00801001  RH  057%=      5-min Rain = 0
KNH1 100718Z 22009KT 08/M00 A2986 RMK A01 T00801001  RH  057%=      5-min Rain = 0
KNH1 100719Z 22009KT 08/M00 A2986 RMK A01 T00801001  RH  057%=      5-min Rain = 0
KNH1 100720Z 22009KT 08/M00 A2986 RMK A01 T00801001  RH  057%=      5-min Rain = 0
KNH1 100721Z 23009KT 08/M00 A2986 RMK A01 T00801001  RH  057%=      5-min Rain = 0
KNH1 100722Z 23009KT 08/M00 A2986 RMK A01 T00791001  RH  057%=      5-min Rain = 0
KNH1 100723Z 22010KT 08/M00 A2986 RMK A01 T00781001  RH  057%=      5-min Rain = 0
KNH1 100724Z 23009KT 08/M00 A2985 RMK A01 T00771001  RH  058%=      5-min Rain = 0
KNH1 100725Z 23010KT 08/M00 A2985 RMK A01 T00771001  RH  058%=      5-min Rain = 0
KNH1 100726Z 23010KT 08/M00 A2985 RMK A01 T00771001  RH  058%=      5-min Rain = 0
KNH1 100727Z 23011KT 08/M00 A2985 RMK A01 T00781001  RH  058%=      5-min Rain = 0
KNH1 100728Z 23011KT 08/M00 A2985 RMK A01 T00781001  RH  057%=      5-min Rain = 0
KNH1 100729Z 23010KT 08/M00 A2985 RMK A01 T00791001  RH  057%=      5-min Rain = 0
KNH1 100730Z 22011KT 08/M00 A2985 RMK A01 T00781001  RH  057%=      5-min Rain = 0
KNH1 100731Z 22011KT 08/M00 A2985 RMK A01 T00781001  RH  057%=      5-min Rain = 0
KNH1 100732Z 22011KT 08/M00 A2985 RMK A01 T00781001  RH  057%=      5-min Rain = 0
KNH1 100733Z 22011KT 08/M00 A2985 RMK A01 T00781001  RH  057%=      5-min Rain = 0
KNH1 100734Z 22011KT 08/M00 A2985 RMK A01 T00781001  RH  057%=      5-min Rain = 0
KNH1 100735Z 22012KT 08/M00 A2985 RMK A01 T00781001  RH  057%=      5-min Rain = 0
KNH1 100736Z 22011KT 08/M00 A2985 RMK A01 T00781001  RH  057%=      5-min Rain = 0
KNH1 100737Z 22012KT 08/M00 A2985 RMK A01 T00781001  RH  057%=      5-min Rain = 0
KNH1 100738Z 22012KT 08/M00 A2985 RMK A01 T00781001  RH  057%=      5-min Rain = 0
KNH1 100739Z 22011KT 08/M00 A2985 RMK A01 T00781001  RH  057%=      5-min Rain = 0
KNH1 100740Z 22011KT 08/M00 A2985 RMK A01 T00781001  RH  057%=      5-min Rain = 0
KNH1 100741Z 22011KT 08/M00 A2985 RMK A01 T00771001  RH  057%=      5-min Rain = 0
KNH1 100742Z 22011KT 08/M00 A2985 RMK A01 T00771001  RH  058%=      5-min Rain = 0
KNH1 100743Z 22011KT 08/M00 A2985 RMK A01 T00771001  RH  058%=      5-min Rain = 0
KNH1 100744Z 22011KT 08/M00 A2985 RMK A01 T00771001  RH  058%=      5-min Rain = 0
KNH1 100745Z 22011KT 08/M00 A2985 RMK A01 T00771001  RH  058%=      5-min Rain = 0
KNH1 100746Z 22011KT 08/M00 A2985 RMK A01 T00761001  RH  058%=      5-min Rain = 0
KNH1 100747Z 22011KT 08/M00 A2985 RMK A01 T00761001  RH  058%=      5-min Rain = 0
KNH1 100748Z 23011KT 08/M00 A2985 RMK A01 T00761001  RH  058%=      5-min Rain = 0
KNH1 100749Z 22010KT 08/M00 A2985 RMK A01 T00761001  RH  058%=      5-min Rain = 0
KNH1 100750Z 22010KT 08/M00 A2985 RMK A01 T00751001  RH  058%=      5-min Rain = 0
KNH1 100751Z 22010KT 08/M00 A2985 RMK A01 T00751001  RH  059%=      5-min Rain = 0
KNH1 100752Z 22010KT 07/M00 A2985 RMK A01 T00741001  RH  059%=      5-min Rain = 0
KNH1 100753Z 22011KT 07/M00 A2985 RMK A01 T00741001  RH  059%=      5-min Rain = 0
KNH1 100754Z 22010KT 07/M00 A2985 RMK A01 T00741001  RH  059%=      5-min Rain = 0
KNH1 100755Z 22010KT 07/M00 A2985 RMK A01 T00741001  RH  059%=      5-min Rain = 0
KNH1 100756Z 22010KT 07/M00 A2985 RMK A01 T00731001  RH  059%=      5-min Rain = 0
KNH1 100757Z 22010KT 07/M00 A2985 RMK A01 T00731001  RH  059%=      5-min Rain = 0
KNH1 100758Z 22010KT 07/M00 A2985 RMK A01 T00731001  RH  059%=      5-min Rain = 0
KNH1 100759Z 22011KT 07/M00 A2985 RMK A01 T00721002  RH  059%=      5-min Rain = 0
KNH1 100800Z 22010KT 07/M00 A2985 RMK A01 T00731001  RH  059%=      5-min Rain = 0
KNH1 100801Z 22011KT 07/M00 A2985 RMK A01 T00721002  RH  059%=      5-min Rain = 0
KNH1 100802Z 22010KT 07/M00 A2985 RMK A01 T00721002  RH  059%=      5-min Rain = 0
KNH1 100803Z 22011KT 07/M00 A2985 RMK A01 T00721002  RH  059%=      5-min Rain = 0
KNH1 100804Z 22010KT 07/M00 A2985 RMK A01 T00721002  RH  060%=      5-min Rain = 0
KNH1 100805Z 22011KT 07/M00 A2985 RMK A01 T00721002  RH  060%=      5-min Rain = 0
KNH1 100806Z 22011KT 07/M00 A2985 RMK A01 T00721002  RH  060%=      5-min Rain = 0
KNH1 100807Z 22011KT 07/M00 A2985 RMK A01 T00731001  RH  059%=      5-min Rain = 0
KNH1 100808Z 22011KT 07/M00 A2985 RMK A01 T00731001  RH  059%=      5-min Rain = 0
KNH1 100809Z 22011KT 07/M00 A2985 RMK A01 T00731001  RH  059%=      5-min Rain = 0
KNH1 100810Z 22010KT 07/M00 A2985 RMK A01 T00731001  RH  059%=      5-min Rain = 0
KNH1 100811Z 22011KT 07/M00 A2985 RMK A01 T00731001  RH  059%=      5-min Rain = 0
KNH1 100812Z 21010KT 07/M00 A2985 RMK A01 T00731001  RH  059%=      5-min Rain = 0
KNH1 100813Z 22010KT 07/M00 A2985 RMK A01 T00731001  RH  059%=      5-min Rain = 0
KNH1 100814Z 22011KT 07/M00 A2985 RMK A01 T00721002  RH  059%=      5-min Rain = 0
KNH1 100815Z 22010KT 07/M00 A2985 RMK A01 T00731001  RH  059%=      5-min Rain = 0
KNH1 100816Z 22010KT 07/M00 A2985 RMK A01 T00721001  RH  059%=      5-min Rain = 0
KNH1 100817Z 22011KT 07/M00 A2985 RMK A01 T00731001  RH  059%=      5-min Rain = 0
KNH1 100818Z 21011KT 07/M00 A2985 RMK A01 T00721002  RH  059%=      5-min Rain = 0
KNH1 100819Z 22010KT 07/M00 A2985 RMK A01 T00721001  RH  059%=      5-min Rain = 0
KNH1 100820Z 22010KT 07/M00 A2985 RMK A01 T00721002  RH  060%=      5-min Rain = 0
KNH1 100821Z 22010KT 07/M00 A2984 RMK A01 T00711002  RH  060%=      5-min Rain = 0
KNH1 100822Z 22011KT 07/M00 A2984 RMK A01 T00711002  RH  060%=      5-min Rain = 0
KNH1 100823Z 21010KT 07/M00 A2984 RMK A01 T00711002  RH  060%=      5-min Rain = 0
KNH1 100824Z 22010KT 07/M00 A2984 RMK A01 T00711002  RH  060%=      5-min Rain = 0
KNH1 100825Z 22010KT 07/M00 A2985 RMK A01 T00711002  RH  060%=      5-min Rain = 0
KNH1 100826Z 22009KT 07/M00 A2985 RMK A01 T00711002  RH  060%=      5-min Rain = 0
KNH1 100827Z 21009KT 07/M00 A2984 RMK A01 T00701002  RH  060%=      5-min Rain = 0
KNH1 100828Z 21009KT 07/M00 A2984 RMK A01 T00701002  RH  060%=      5-min Rain = 0
KNH1 100829Z 21011KT 07/M00 A2984 RMK A01 T00691002  RH  060%=      5-min Rain = 0
KNH1 100830Z 22010KT 07/M00 A2984 RMK A01 T00701002  RH  060%=      5-min Rain = 0
KNH1 100831Z 22010KT 07/M00 A2984 RMK A01 T00691002  RH  060%=      5-min Rain = 0
KNH1 100832Z 22010KT 07/M00 A2985 RMK A01 T00691002  RH  060%=      5-min Rain = 0
KNH1 100833Z 22010KT 07/M00 A2985 RMK A01 T00691002  RH  060%=      5-min Rain = 0
KNH1 100834Z 22010KT 07/M00 A2985 RMK A01 T00691003  RH  060%=      5-min Rain = 0
KNH1 100835Z 22010KT 07/M00 A2985 RMK A01 T00681003  RH  060%=      5-min Rain = 0
KNH1 100836Z 22010KT 07/M00 A2985 RMK A01 T00681003  RH  061%=      5-min Rain = 0
KNH1 100837Z 22010KT 07/M00 A2984 RMK A01 T00681003  RH  061%=      5-min Rain = 0
KNH1 100838Z 22010KT 07/M00 A2984 RMK A01 T00671003  RH  061%=      5-min Rain = 0
KNH1 100839Z 22010KT 07/M00 A2984 RMK A01 T00671003  RH  061%=      5-min Rain = 0
KNH1 100840Z 22010KT 07/M00 A2984 RMK A01 T00671003  RH  061%=      5-min Rain = 0
KNH1 100841Z 22010KT 07/M00 A2984 RMK A01 T00671003  RH  061%=      5-min Rain = 0
KNH1 100842Z 22011KT 07/M00 A2984 RMK A01 T00661003  RH  061%=      5-min Rain = 0
KNH1 100843Z 22010KT 07/M00 A2984 RMK A01 T00661003  RH  061%=      5-min Rain = 0
KNH1 100844Z 22010KT 07/M00 A2984 RMK A01 T00651004  RH  061%=      5-min Rain = 0
KNH1 100845Z 22010KT 07/M00 A2984 RMK A01 T00651003  RH  062%=      5-min Rain = 0
KNH1 100846Z 22010KT 07/M00 A2984 RMK A01 T00651004  RH  062%=      5-min Rain = 0
KNH1 100847Z 22010KT 06/M00 A2984 RMK A01 T00641004  RH  062%=      5-min Rain = 0
KNH1 100848Z 22011KT 06/M00 A2984 RMK A01 T00641003  RH  062%=      5-min Rain = 0
KNH1 100849Z 22010KT 06/M00 A2984 RMK A01 T00641004  RH  062%=      5-min Rain = 0
KNH1 100850Z 22010KT 06/M00 A2984 RMK A01 T00641004  RH  062%=      5-min Rain = 0
KNH1 100851Z 22010KT 07/M00 A2984 RMK A01 T00651003  RH  062%=      5-min Rain = 0
KNH1 100852Z 22010KT 07/M00 A2984 RMK A01 T00651003  RH  062%=      5-min Rain = 0
KNH1 100853Z 22011KT 07/M00 A2984 RMK A01 T00661003  RH  062%=      5-min Rain = 0
KNH1 100854Z 22010KT 07/M00 A2984 RMK A01 T00671002  RH  061%=      5-min Rain = 0
KNH1 100855Z 22010KT 07/M00 A2984 RMK A01 T00681002  RH  061%=      5-min Rain = 0
KNH1 100856Z 22009KT 07/M00 A2984 RMK A01 T00681002  RH  061%=      5-min Rain = 0
KNH1 100857Z 22010KT 07/M00 A2984 RMK A01 T00681002  RH  061%=      5-min Rain = 0
KNH1 100858Z 22010KT 07/M00 A2984 RMK A01 T00681002  RH  061%=      5-min Rain = 0
KNH1 100859Z 22011KT 07/M00 A2984 RMK A01 T00681002  RH  061%=      5-min Rain = 0
KNH1 100900Z 22010KT 07/M00 A2984 RMK A01 T00681002  RH  061%=      5-min Rain = 0
KNH1 100901Z 22010KT 07/M00 A2983 RMK A01 T00681002  RH  061%=      5-min Rain = 0
KNH1 100902Z 22010KT 07/M00 A2983 RMK A01 T00671003  RH  061%=      5-min Rain = 0
KNH1 100903Z 22009KT 07/M00 A2983 RMK A01 T00661003  RH  061%=      5-min Rain = 0
KNH1 100904Z 22009KT 07/M00 A2983 RMK A01 T00661004  RH  061%=      5-min Rain = 0
KNH1 100905Z 22010KT 07/M00 A2983 RMK A01 T00651003  RH  062%=      5-min Rain = 0
KNH1 100906Z 21010KT 07/M00 A2983 RMK A01 T00651003  RH  062%=      5-min Rain = 0
KNH1 100907Z 21010KT 07/M00 A2983 RMK A01 T00651003  RH  062%=      5-min Rain = 0
KNH1 100908Z 22010KT 07/M00 A2983 RMK A01 T00651003  RH  062%=      5-min Rain = 0
KNH1 100909Z 22010KT 07/M00 A2983 RMK A01 T00651003  RH  062%=      5-min Rain = 0
KNH1 100910Z 22010KT 07/M00 A2983 RMK A01 T00651003  RH  062%=      5-min Rain = 0
KNH1 100911Z 22010KT 07/M00 A2983 RMK A01 T00651003  RH  062%=      5-min Rain = 0
KNH1 100912Z 22010KT 07/M00 A2983 RMK A01 T00661002  RH  062%=      5-min Rain = 0
KNH1 100913Z 22010KT 07/M00 A2983 RMK A01 T00661002  RH  062%=      5-min Rain = 0
KNH1 100914Z 22010KT 07/M00 A2983 RMK A01 T00661002  RH  062%=      5-min Rain = 0
KNH1 100915Z 22010KT 07/M00 A2983 RMK A01 T00661002  RH  062%=      5-min Rain = 0
KNH1 100916Z 22009KT 07/M00 A2983 RMK A01 T00661002  RH  062%=      5-min Rain = 0
KNH1 100917Z 22009KT 07/M00 A2983 RMK A01 T00661002  RH  062%=      5-min Rain = 0
KNH1 100918Z 22009KT 07/M00 A2983 RMK A01 T00651002  RH  062%=      5-min Rain = 0
KNH1 100919Z 22008KT 07/M00 A2983 RMK A01 T00651002  RH  062%=      5-min Rain = 0
KNH1 100920Z 22008KT 07/M00 A2982 RMK A01 T00651002  RH  062%=      5-min Rain = 0
KNH1 100921Z 22008KT 06/M00 A2982 RMK A01 T00641002  RH  062%=      5-min Rain = 0
KNH1 100922Z 21008KT 06/M00 A2982 RMK A01 T00641002  RH  063%=      5-min Rain = 0
KNH1 100923Z 21008KT 06/M00 A2982 RMK A01 T00631003  RH  063%=      5-min Rain = 0
KNH1 100924Z 21008KT 06/M00 A2982 RMK A01 T00631003  RH  063%=      5-min Rain = 0
KNH1 100925Z 21008KT 06/M00 A2982 RMK A01 T00631002  RH  063%=      5-min Rain = 0
KNH1 100926Z 22008KT 06/M00 A2982 RMK A01 T00621002  RH  063%=      5-min Rain = 0
KNH1 100927Z 22008KT 06/M00 A2982 RMK A01 T00621002  RH  063%=      5-min Rain = 0
KNH1 100928Z 22009KT 06/M00 A2983 RMK A01 T00621002  RH  063%=      5-min Rain = 0
KNH1 100929Z 22008KT 06/M00 A2983 RMK A01 T00621003  RH  063%=      5-min Rain = 0
KNH1 100930Z 22008KT 06/M00 A2983 RMK A01 T00611003  RH  063%=      5-min Rain = 0
KNH1 100931Z 22007KT 06/M00 A2983 RMK A01 T00611003  RH  064%=      5-min Rain = 0
KNH1 100932Z 22007KT 06/M00 A2982 RMK A01 T00601003  RH  064%=      5-min Rain = 0
KNH1 100933Z 22008KT 06/M00 A2982 RMK A01 T00591004  RH  064%=      5-min Rain = 0
KNH1 100934Z 22007KT 06/M00 A2982 RMK A01 T00591004  RH  064%=      5-min Rain = 0
KNH1 100935Z 22007KT 06/M00 A2982 RMK A01 T00581004  RH  065%=      5-min Rain = 0
KNH1 100936Z 22009KT 06/M00 A2982 RMK A01 T00571004  RH  065%=      5-min Rain = 0
KNH1 100937Z 21008KT 06/M00 A2982 RMK A01 T00581003  RH  065%=      5-min Rain = 0
KNH1 100938Z 22007KT 06/M00 A2982 RMK A01 T00571003  RH  065%=      5-min Rain = 0
KNH1 100939Z 22008KT 06/M00 A2982 RMK A01 T00571003  RH  065%=      5-min Rain = 0
KNH1 100940Z 22008KT 06/M00 A2982 RMK A01 T00571003  RH  065%=      5-min Rain = 0
KNH1 100941Z 22008KT 06/M00 A2982 RMK A01 T00571003  RH  065%=      5-min Rain = 0
KNH1 100942Z 22008KT 06/M00 A2982 RMK A01 T00571003  RH  065%=      5-min Rain = 0
KNH1 100943Z 22008KT 06/M00 A2982 RMK A01 T00561003  RH  066%=      5-min Rain = 0
KNH1 100944Z 22009KT 06/M00 A2982 RMK A01 T00561003  RH  066%=      5-min Rain = 0
KNH1 100945Z 22009KT 06/M00 A2982 RMK A01 T00561003  RH  066%=      5-min Rain = 0
KNH1 100946Z 22008KT 06/M00 A2982 RMK A01 T00561003  RH  066%=      5-min Rain = 0
KNH1 100947Z 22008KT 06/M00 A2982 RMK A01 T00551003  RH  066%=      5-min Rain = 0
KNH1 100948Z 22008KT 06/M00 A2982 RMK A01 T00561003  RH  066%=      5-min Rain = 0
KNH1 100949Z 22008KT 06/M00 A2982 RMK A01 T00551003  RH  066%=      5-min Rain = 0
KNH1 100950Z 23008KT 06/M00 A2982 RMK A01 T00551004  RH  066%=      5-min Rain = 0
KNH1 100951Z 24008KT 05/M00 A2982 RMK A01 T00541004  RH  066%=      5-min Rain = 0
KNH1 100952Z 25007KT 05/M01 A2982 RMK A01 T00521006  RH  066%=      5-min Rain = 0
KNH1 100953Z 25008KT 05/M01 A2982 RMK A01 T00501007  RH  067%=      5-min Rain = 0
KNH1 100954Z 24007KT 05/M01 A2982 RMK A01 T00491007  RH  067%=      5-min Rain = 0
KNH1 100955Z 24007KT 05/M01 A2982 RMK A01 T00481007  RH  068%=      5-min Rain = 0
KNH1 100956Z 24007KT 05/M01 A2982 RMK A01 T00481007  RH  068%=      5-min Rain = 0
KNH1 100957Z 24007KT 05/M01 A2982 RMK A01 T00481006  RH  068%=      5-min Rain = 0
KNH1 100958Z 24007KT 05/M01 A2982 RMK A01 T00481007  RH  068%=      5-min Rain = 0
KNH1 100959Z 24007KT 05/M01 A2982 RMK A01 T00481007  RH  068%=      5-min Rain = 0
KNH1 101000Z 24007KT 05/M01 A2982 RMK A01 T00481006  RH  068%=      5-min Rain = 0
KNH1 101001Z 24007KT 05/M01 A2982 RMK A01 T00481006  RH  068%=      5-min Rain = 0
KNH1 101002Z 23007KT 05/M01 A2981 RMK A01 T00481006  RH  068%=      5-min Rain = 0
KNH1 101003Z 23007KT 05/M01 A2981 RMK A01 T00471007  RH  068%=      5-min Rain = 0
KNH1 101004Z 23007KT 05/M01 A2981 RMK A01 T00471007  RH  068%=      5-min Rain = 0
KNH1 101005Z 24007KT 05/M01 A2981 RMK A01 T00461007  RH  068%=      5-min Rain = 0
KNH1 101006Z 24006KT 05/M01 A2981 RMK A01 T00461008  RH  068%=      5-min Rain = 0
KNH1 101007Z 24007KT 05/M01 A2982 RMK A01 T00451008  RH  068%=      5-min Rain = 0
KNH1 101008Z 24007KT 04/M01 A2982 RMK A01 T00441009  RH  068%=      5-min Rain = 0
KNH1 101009Z 24008KT 04/M01 A2982 RMK A01 T00431010  RH  069%=      5-min Rain = 0
KNH1 101010Z 24008KT 04/M01 A2982 RMK A01 T00431010  RH  069%=      5-min Rain = 0
KNH1 101011Z 24008KT 04/M01 A2982 RMK A01 T00421009  RH  069%=      5-min Rain = 0
KNH1 101012Z 24008KT 04/M01 A2982 RMK A01 T00421009  RH  069%=      5-min Rain = 0
KNH1 101013Z 24008KT 04/M01 A2982 RMK A01 T00421009  RH  069%=      5-min Rain = 0
KNH1 101014Z 23008KT 04/M01 A2982 RMK A01 T00421009  RH  069%=      5-min Rain = 0
KNH1 101015Z 23008KT 04/M01 A2982 RMK A01 T00421009  RH  069%=      5-min Rain = 0
KNH1 101016Z 23008KT 04/M01 A2982 RMK A01 T00421009  RH  069%=      5-min Rain = 0
KNH1 101017Z 23008KT 04/M01 A2981 RMK A01 T00421009  RH  069%=      5-min Rain = 0
KNH1 101018Z 24008KT 04/M01 A2981 RMK A01 T00421009  RH  069%=      5-min Rain = 0
KNH1 101019Z 24008KT 04/M01 A2981 RMK A01 T00421009  RH  069%=      5-min Rain = 0
KNH1 101020Z 24008KT 04/M01 A2981 RMK A01 T00421009  RH  069%=      5-min Rain = 0
KNH1 101021Z 24008KT 04/M01 A2981 RMK A01 T00421009  RH  069%=      5-min Rain = 0
KNH1 101022Z 24008KT 04/M01 A2981 RMK A01 T00421009  RH  069%=      5-min Rain = 0
KNH1 101023Z 24009KT 04/M01 A2981 RMK A01 T00431008  RH  070%=      5-min Rain = 0
KNH1 101024Z 23009KT 04/M01 A2981 RMK A01 T00441007  RH  070%=      5-min Rain = 0
KNH1 101025Z 23009KT 05/M01 A2981 RMK A01 T00451006  RH  070%=      5-min Rain = 0
KNH1 101026Z 23008KT 05/M01 A2981 RMK A01 T00461005  RH  069%=      5-min Rain = 0
KNH1 101027Z 23008KT 05/M00 A2981 RMK A01 T00481004  RH  069%=      5-min Rain = 0
KNH1 101028Z 24008KT 05/M00 A2981 RMK A01 T00491004  RH  069%=      5-min Rain = 0
KNH1 101029Z 23008KT 05/M00 A2981 RMK A01 T00491004  RH  069%=      5-min Rain = 0
KNH1 101030Z 23008KT 05/M00 A2981 RMK A01 T00501003  RH  068%=      5-min Rain = 0
KNH1 101031Z 23009KT 05/M00 A2981 RMK A01 T00511002  RH  069%=      5-min Rain = 0
KNH1 101032Z 22009KT 05/00 A2981 RMK A01 T005300-0  RH  068%=      5-min Rain = 0
KNH1 101033Z 22009KT 06/00 A2981 RMK A01 T00550000  RH  068%=      5-min Rain = 0
KNH1 101034Z 22009KT 06/00 A2981 RMK A01 T005500-0  RH  067%=      5-min Rain = 0
KNH1 101035Z 22009KT 06/00 A2981 RMK A01 T00550000  RH  068%=      5-min Rain = 0
KNH1 101036Z 22009KT 06/00 A2981 RMK A01 T00550000  RH  067%=      5-min Rain = 0
KNH1 101037Z 22008KT 06/00 A2981 RMK A01 T00560000  RH  067%=      5-min Rain = 0
KNH1 101038Z 22008KT 06/00 A2981 RMK A01 T00560000  RH  067%=      5-min Rain = 0
KNH1 101039Z 22008KT 06/00 A2981 RMK A01 T00560000  RH  067%=      5-min Rain = 0
KNH1 101040Z 22008KT 06/00 A2981 RMK A01 T00560000  RH  067%=      5-min Rain = 0
KNH1 101041Z 22007KT 06/00 A2981 RMK A01 T00560000  RH  067%=      5-min Rain = 0
KNH1 101042Z 22008KT 06/00 A2981 RMK A01 T00560000  RH  067%=      5-min Rain = 0
KNH1 101043Z 22007KT 06/00 A2981 RMK A01 T00560000  RH  068%=      5-min Rain = 0
KNH1 101044Z 22008KT 06/00 A2981 RMK A01 T00550000  RH  068%=      5-min Rain = 0
KNH1 101045Z 22008KT 06/00 A298 RMK A01 T00550001  RH  068%=      5-min Rain = 0
KNH1 101046Z 22008KT 06/00 A298 RMK A01 T00550001  RH  068%=      5-min Rain = 0
KNH1 101047Z 22007KT 06/00 A298 RMK A01 T00550001  RH  068%=      5-min Rain = 0
KNH1 101048Z 22008KT 06/00 A298 RMK A01 T00560001  RH  068%=      5-min Rain = 0
KNH1 101049Z 22009KT 06/00 A298 RMK A01 T00560001  RH  068%=      5-min Rain = 0
KNH1 101050Z 21009KT 06/00 A298 RMK A01 T00560002  RH  068%=      5-min Rain = 0
KNH1 101051Z 22009KT 06/00 A298 RMK A01 T00560002  RH  068%=      5-min Rain = 0
KNH1 101052Z 21009KT 06/00 A298 RMK A01 T00560002  RH  068%=      5-min Rain = 0
KNH1 101053Z 21009KT 06/00 A298 RMK A01 T00560002  RH  068%=      5-min Rain = 0
KNH1 101054Z 21009KT 06/00 A298 RMK A01 T00570004  RH  068%=      5-min Rain = 0
KNH1 101055Z 21009KT 06/00 A298 RMK A01 T00580004  RH  068%=      5-min Rain = 0
KNH1 101056Z 21009KT 06/01 A298 RMK A01 T00600005  RH  068%=      5-min Rain = 0
KNH1 101057Z 21009KT 06/01 A298 RMK A01 T00610006  RH  068%=      5-min Rain = 0
KNH1 101058Z 21009KT 06/01 A298 RMK A01 T00620006  RH  068%=      5-min Rain = 0
KNH1 101059Z 21010KT 06/01 A298 RMK A01 T00620006  RH  067%=      5-min Rain = 0
KNH1 101100Z 21010KT 06/01 A2979 RMK A01 T00620006  RH  067%=      5-min Rain = 0
KNH1 101101Z 20010KT 06/01 A2979 RMK A01 T00630006  RH  067%=      5-min Rain = 0
KNH1 101102Z 21010KT 06/01 A2979 RMK A01 T00620007  RH  067%=      5-min Rain = 0
KNH1 101103Z 21009KT 06/01 A2979 RMK A01 T00630007  RH  067%=      5-min Rain = 0
KNH1 101104Z 21010KT 06/01 A2979 RMK A01 T00630007  RH  067%=      5-min Rain = 0
KNH1 101105Z 21010KT 06/01 A2979 RMK A01 T00630007  RH  067%=      5-min Rain = 0
KNH1 101106Z 21010KT 06/01 A2979 RMK A01 T00630007  RH  067%=      5-min Rain = 0
KNH1 101107Z 21011KT 06/01 A2979 RMK A01 T00640008  RH  067%=      5-min Rain = 0
KNH1 101108Z 21010KT 06/01 A2979 RMK A01 T00640008  RH  067%=      5-min Rain = 0
KNH1 101109Z 20010KT 06/01 A2979 RMK A01 T00640007  RH  067%=      5-min Rain = 0
KNH1 101110Z 20010KT 06/01 A2979 RMK A01 T00630007  RH  067%=      5-min Rain = 0
KNH1 101111Z 20010KT 06/01 A2979 RMK A01 T00620006  RH  068%=      5-min Rain = 0
KNH1 101112Z 20010KT 06/01 A2979 RMK A01 T00610007  RH  068%=      5-min Rain = 0
KNH1 101113Z 20011KT 06/01 A2979 RMK A01 T00600006  RH  068%=      5-min Rain = 0
KNH1 101114Z 21011KT 06/01 A2979 RMK A01 T00600007  RH  069%=      5-min Rain = 0
KNH1 101115Z 21011KT 06/01 A2979 RMK A01 T00600007  RH  069%=      5-min Rain = 0
KNH1 101116Z 21011KT 06/01 A2979 RMK A01 T00610008  RH  069%=      5-min Rain = 0
KNH1 101117Z 21010KT 06/01 A2979 RMK A01 T00620008  RH  069%=      5-min Rain = 0
KNH1 101118Z 22011KT 06/01 A2979 RMK A01 T00630009  RH  068%=      5-min Rain = 0
KNH1 101119Z 21011KT 06/01 A2979 RMK A01 T00630008  RH  068%=      5-min Rain = 0
KNH1 101120Z 22010KT 06/01 A2979 RMK A01 T00620007  RH  068%=      5-min Rain = 0
KNH1 101121Z 21010KT 06/01 A2979 RMK A01 T00610006  RH  068%=      5-min Rain = 0
KNH1 101122Z 21010KT 06/01 A2979 RMK A01 T00590006  RH  069%=      5-min Rain = 0
KNH1 101123Z 21010KT 06/01 A2979 RMK A01 T00580006  RH  069%=      5-min Rain = 0
KNH1 101124Z 21009KT 06/01 A2979 RMK A01 T00570006  RH  069%=      5-min Rain = 0
KNH1 101125Z 21009KT 06/01 A2979 RMK A01 T00580006  RH  070%=      5-min Rain = 0
KNH1 101126Z 21010KT 06/01 A2979 RMK A01 T00580007  RH  070%=      5-min Rain = 0
KNH1 101127Z 21010KT 06/01 A2979 RMK A01 T00580007  RH  070%=      5-min Rain = 0
KNH1 101128Z 21010KT 06/01 A298 RMK A01 T00570007  RH  070%=      5-min Rain = 0
KNH1 101129Z 21011KT 06/01 A298 RMK A01 T00570006  RH  070%=      5-min Rain = 0
KNH1 101130Z 21011KT 06/01 A298 RMK A01 T00570007  RH  070%=      5-min Rain = 0
KNH1 101131Z 21010KT 06/01 A298 RMK A01 T00570007  RH  070%=      5-min Rain = 0
KNH1 101132Z 21010KT 06/01 A298 RMK A01 T00570007  RH  070%=      5-min Rain = 0
KNH1 101133Z 20010KT 06/01 A2979 RMK A01 T00580007  RH  070%=      5-min Rain = 0
KNH1 101134Z 21009KT 06/01 A2979 RMK A01 T00580007  RH  070%=      5-min Rain = 0
KNH1 101135Z 22009KT 06/01 A2979 RMK A01 T00580007  RH  069%=      5-min Rain = 0
KNH1 101136Z 22009KT 06/01 A2979 RMK A01 T00580007  RH  069%=      5-min Rain = 0
KNH1 101137Z 22009KT 06/01 A2979 RMK A01 T00580006  RH  069%=      5-min Rain = 0
KNH1 101138Z 22009KT 06/01 A298 RMK A01 T00560005  RH  070%=      5-min Rain = 0
KNH1 101139Z 22009KT 06/01 A298 RMK A01 T00550005  RH  070%=      5-min Rain = 0
KNH1 101140Z 22009KT 05/00 A298 RMK A01 T00540004  RH  070%=      5-min Rain = 0
KNH1 101141Z 22009KT 05/00 A298 RMK A01 T00540004  RH  070%=      5-min Rain = 0
KNH1 101142Z 22008KT 05/00 A298 RMK A01 T00530004  RH  071%=      5-min Rain = 0
KNH1 101143Z 23008KT 05/00 A298 RMK A01 T00530004  RH  071%=      5-min Rain = 0
KNH1 101144Z 23008KT 05/00 A298 RMK A01 T00520004  RH  071%=      5-min Rain = 0
KNH1 101145Z 23008KT 05/00 A298 RMK A01 T00520004  RH  071%=      5-min Rain = 0
KNH1 101146Z 23009KT 05/00 A298 RMK A01 T00510003  RH  071%=      5-min Rain = 0
KNH1 101147Z 23008KT 05/00 A298 RMK A01 T00510004  RH  072%=      5-min Rain = 0
KNH1 101148Z 24009KT 05/01 A298 RMK A01 T00510005  RH  072%=      5-min Rain = 0
KNH1 101149Z 23009KT 05/01 A298 RMK A01 T00530006  RH  072%=      5-min Rain = 0
KNH1 101150Z 23007KT 05/01 A298 RMK A01 T00540006  RH  071%=      5-min Rain = 0
KNH1 101151Z 23007KT 06/01 A2979 RMK A01 T00550006  RH  071%=      5-min Rain = 0
KNH1 101152Z 23007KT 06/01 A298 RMK A01 T00550005  RH  070%=      5-min Rain = 0
KNH1 101153Z 23007KT 06/01 A298 RMK A01 T00550005  RH  070%=      5-min Rain = 0
KNH1 101154Z 23007KT 06/01 A298 RMK A01 T00560006  RH  070%=      5-min Rain = 0
KNH1 101155Z 23008KT 06/01 A298 RMK A01 T00560006  RH  070%=      5-min Rain = 0
KNH1 101156Z 23008KT 06/01 A298 RMK A01 T00560005  RH  070%=      5-min Rain = 0
KNH1 101157Z 23008KT 06/01 A298 RMK A01 T00550005  RH  070%=      5-min Rain = 0
KNH1 101158Z 23008KT 06/01 A298 RMK A01 T00550005  RH  070%=      5-min Rain = 0
KNH1 101159Z 23008KT 05/01 A298 RMK A01 T00540005  RH  070%=      5-min Rain = 0
KNH1 101200Z 23008KT 05/01 A298 RMK A01 T00540005  RH  070%=      5-min Rain = 0
KNH1 101201Z 23009KT 06/01 A298 RMK A01 T00550005  RH  071%=      5-min Rain = 0
KNH1 101202Z 23008KT 05/01 A2979 RMK A01 T00540005  RH  071%=      5-min Rain = 0
KNH1 101203Z 23009KT 06/01 A2979 RMK A01 T00550006  RH  071%=      5-min Rain = 0
KNH1 101204Z 23009KT 06/01 A2979 RMK A01 T00560006  RH  070%=      5-min Rain = 0
KNH1 101205Z 23009KT 06/01 A298 RMK A01 T00560006  RH  070%=      5-min Rain = 0
KNH1 101206Z 23009KT 06/01 A298 RMK A01 T00570007  RH  070%=      5-min Rain = 0
KNH1 101207Z 23009KT 06/01 A298 RMK A01 T00560006  RH  070%=      5-min Rain = 0
KNH1 101208Z 23008KT 06/01 A2979 RMK A01 T00570007  RH  070%=      5-min Rain = 0
KNH1 101209Z 23008KT 06/01 A2979 RMK A01 T00570006  RH  070%=      5-min Rain = 0
KNH1 101210Z 23008KT 06/01 A298 RMK A01 T00570007  RH  070%=      5-min Rain = 0
KNH1 101211Z 23009KT 06/01 A298 RMK A01 T00560006  RH  070%=      5-min Rain = 0
KNH1 101212Z 23009KT 06/01 A298 RMK A01 T00570006  RH  070%=      5-min Rain = 0
KNH1 101213Z 23009KT 06/01 A298 RMK A01 T00560006  RH  070%=      5-min Rain = 0
KNH1 101214Z 23009KT 06/01 A298 RMK A01 T00560006  RH  070%=      5-min Rain = 0
KNH1 101215Z 23008KT 06/01 A298 RMK A01 T00560006  RH  070%=      5-min Rain = 0
KNH1 101216Z 23008KT 06/01 A298 RMK A01 T00560006  RH  070%=      5-min Rain = 0
KNH1 101217Z 23008KT 06/01 A2979 RMK A01 T00560006  RH  070%=      5-min Rain = 0
KNH1 101218Z 23008KT 06/01 A2979 RMK A01 T00560006  RH  070%=      5-min Rain = 0
KNH1 101219Z 23008KT 06/01 A298 RMK A01 T00560006  RH  070%=      5-min Rain = 0
KNH1 101220Z 23007KT 06/01 A298 RMK A01 T00560006  RH  070%=      5-min Rain = 0
KNH1 101221Z 23007KT 06/01 A298 RMK A01 T00560006  RH  070%=      5-min Rain = 0
KNH1 101222Z 23006KT 06/01 A298 RMK A01 T00550006  RH  070%=      5-min Rain = 0
KNH1 101223Z 23006KT 06/01 A2979 RMK A01 T00550006  RH  071%=      5-min Rain = 0
KNH1 101224Z 24006KT 06/01 A2979 RMK A01 T00550006  RH  071%=      5-min Rain = 0
KNH1 101225Z 24007KT 06/01 A2979 RMK A01 T00550006  RH  071%=      5-min Rain = 0
KNH1 101226Z 25007KT 06/01 A2979 RMK A01 T00550006  RH  071%=      5-min Rain = 0
KNH1 101227Z 25007KT 06/01 A298 RMK A01 T00550006  RH  071%=      5-min Rain = 0
KNH1 101228Z 24008KT 05/00 A298 RMK A01 T00540004  RH  070%=      5-min Rain = 0
KNH1 101229Z 24008KT 05/00 A298 RMK A01 T00520003  RH  070%=      5-min Rain = 0
KNH1 101230Z 24008KT 05/00 A298 RMK A01 T00510003  RH  071%=      5-min Rain = 0
KNH1 101231Z 24007KT 05/00 A298 RMK A01 T00500002  RH  071%=      5-min Rain = 0
KNH1 101232Z 24007KT 05/00 A298 RMK A01 T00490002  RH  071%=      5-min Rain = 0
KNH1 101233Z 24006KT 05/00 A298 RMK A01 T00490001  RH  071%=      5-min Rain = 0
KNH1 101234Z 24007KT 05/00 A298 RMK A01 T00480001  RH  072%=      5-min Rain = 0
KNH1 101235Z 24007KT 05/00 A298 RMK A01 T00480001  RH  072%=      5-min Rain = 0
KNH1 101236Z 24007KT 05/00 A298 RMK A01 T00480001  RH  072%=      5-min Rain = 0
KNH1 101237Z 25006KT 05/00 A298 RMK A01 T00470001  RH  072%=      5-min Rain = 0
KNH1 101238Z 25006KT 05/00 A2979 RMK A01 T00470001  RH  072%=      5-min Rain = 0
KNH1 101239Z 25006KT 05/00 A2979 RMK A01 T004600-0  RH  072%=      5-min Rain = 0
KNH1 101240Z 24006KT 05/00 A2979 RMK A01 T00460000  RH  072%=      5-min Rain = 0
KNH1 101241Z 23005KT 05/00 A2979 RMK A01 T00460000  RH  072%=      5-min Rain = 0
KNH1 101242Z 23005KT 05/00 A2979 RMK A01 T00460000  RH  072%=      5-min Rain = 0
KNH1 101243Z 22006KT 05/00 A2979 RMK A01 T00460001  RH  072%=      5-min Rain = 0
KNH1 101244Z 22006KT 05/00 A2979 RMK A01 T00460001  RH  072%=      5-min Rain = 0
KNH1 101245Z 22006KT 05/00 A2979 RMK A01 T00470001  RH  072%=      5-min Rain = 0
KNH1 101246Z 21006KT 05/00 A2979 RMK A01 T00470002  RH  072%=      5-min Rain = 0
KNH1 101247Z 22006KT 05/00 A2979 RMK A01 T00470001  RH  072%=      5-min Rain = 0
KNH1 101248Z 21006KT 05/00 A2979 RMK A01 T00470001  RH  072%=      5-min Rain = 0
KNH1 101249Z 22007KT 05/00 A2979 RMK A01 T00470001  RH  072%=      5-min Rain = 0
KNH1 101250Z 22006KT 05/00 A2979 RMK A01 T00460001  RH  072%=      5-min Rain = 0
KNH1 101251Z 22006KT 05/00 A2979 RMK A01 T00460001  RH  072%=      5-min Rain = 0
KNH1 101252Z 22006KT 05/00 A2979 RMK A01 T00460001  RH  073%=      5-min Rain = 0
KNH1 101253Z 22006KT 05/00 A2979 RMK A01 T00460001  RH  073%=      5-min Rain = 0
KNH1 101254Z 23006KT 05/00 A2979 RMK A01 T00470002  RH  073%=      5-min Rain = 0
KNH1 101255Z 23005KT 05/00 A2979 RMK A01 T00460001  RH  072%=      5-min Rain = 0
KNH1 101256Z 23005KT 05/00 A2979 RMK A01 T00450000  RH  072%=      5-min Rain = 0
KNH1 101257Z 23005KT 05/00 A2979 RMK A01 T004500-0  RH  073%=      5-min Rain = 0
KNH1 101258Z 22005KT 04/M00 A2978 RMK A01 T00441001  RH  073%=      5-min Rain = 0
KNH1 101259Z 21005KT 04/00 A2978 RMK A01 T004300-0  RH  073%=      5-min Rain = 0
KNH1 101300Z 21005KT 04/00 A2978 RMK A01 T004300-0  RH  073%=      5-min Rain = 0
KNH1 101301Z 21006KT 04/00 A2978 RMK A01 T00440001  RH  074%=      5-min Rain = 0
KNH1 101302Z 21006KT 04/00 A2978 RMK A01 T00440001  RH  074%=      5-min Rain = 0
KNH1 101303Z 21006KT 04/00 A2978 RMK A01 T00440002  RH  074%=      5-min Rain = 0
KNH1 101304Z 21007KT 05/00 A2978 RMK A01 T00450003  RH  074%=      5-min Rain = 0
KNH1 101305Z 21007KT 05/00 A2978 RMK A01 T00460004  RH  074%=      5-min Rain = 0
KNH1 101306Z 20007KT 05/01 A2978 RMK A01 T00470005  RH  074%=      5-min Rain = 0
KNH1 101307Z 20007KT 05/01 A2978 RMK A01 T00490006  RH  074%=      5-min Rain = 0
KNH1 101308Z 20008KT 05/01 A2978 RMK A01 T00500006  RH  073%=      5-min Rain = 0
KNH1 101309Z 20008KT 05/01 A2978 RMK A01 T00500006  RH  073%=      5-min Rain = 0
KNH1 101310Z 20008KT 05/01 A2978 RMK A01 T00510006  RH  073%=      5-min Rain = 0
KNH1 101311Z 20008KT 05/01 A2978 RMK A01 T00510006  RH  073%=      5-min Rain = 0
KNH1 101312Z 20008KT 05/01 A2978 RMK A01 T00510006  RH  073%=      5-min Rain = 0
KNH1 101313Z 20008KT 05/01 A2978 RMK A01 T00520007  RH  073%=      5-min Rain = 0
KNH1 101314Z 20007KT 05/01 A2977 RMK A01 T00520006  RH  072%=      5-min Rain = 0
KNH1 101315Z 20008KT 05/01 A2977 RMK A01 T00520006  RH  072%=      5-min Rain = 0
KNH1 101316Z 20008KT 05/01 A2977 RMK A01 T00530007  RH  072%=      5-min Rain = 0
KNH1 101317Z 20008KT 05/01 A2978 RMK A01 T00520007  RH  072%=      5-min Rain = 0
KNH1 101318Z 20008KT 05/01 A2978 RMK A01 T00520007  RH  072%=      5-min Rain = 0
KNH1 101319Z 20009KT 05/01 A2978 RMK A01 T00520007  RH  072%=      5-min Rain = 0
KNH1 101320Z 20009KT 05/01 A2978 RMK A01 T00520007  RH  072%=      5-min Rain = 0
KNH1 101321Z 21008KT 05/01 A2978 RMK A01 T00520007  RH  072%=      5-min Rain = 0
KNH1 101322Z 21008KT 05/01 A2977 RMK A01 T00520007  RH  072%=      5-min Rain = 0
KNH1 101323Z 21008KT 05/01 A2977 RMK A01 T00530007  RH  072%=      5-min Rain = 0
KNH1 101324Z 22008KT 05/01 A2977 RMK A01 T00530007  RH  072%=      5-min Rain = 0
KNH1 101325Z 22008KT 05/01 A2978 RMK A01 T00530007  RH  072%=      5-min Rain = 0
KNH1 101326Z 22009KT 05/01 A2978 RMK A01 T00530007  RH  072%=      5-min Rain = 0
KNH1 101327Z 22009KT 05/01 A2978 RMK A01 T00530007  RH  072%=      5-min Rain = 0
KNH1 101328Z 22009KT 05/01 A2978 RMK A01 T00530007  RH  072%=      5-min Rain = 0
KNH1 101329Z 21007KT 05/01 A2978 RMK A01 T00530007  RH  072%=      5-min Rain = 0
KNH1 101330Z 21008KT 05/01 A2978 RMK A01 T00530007  RH  072%=      5-min Rain = 0
KNH1 101331Z 22008KT 05/01 A2978 RMK A01 T00530007  RH  072%=      5-min Rain = 0
KNH1 101332Z 22009KT 05/01 A2978 RMK A01 T00530007  RH  072%=      5-min Rain = 0
KNH1 101333Z 22009KT 05/01 A2978 RMK A01 T00530007  RH  072%=      5-min Rain = 0
KNH1 101334Z 22009KT 05/01 A2978 RMK A01 T00530007  RH  072%=      5-min Rain = 0
KNH1 101335Z 22009KT 05/01 A2978 RMK A01 T00530007  RH  072%=      5-min Rain = 0
KNH1 101336Z 21009KT 05/01 A2978 RMK A01 T00530007  RH  072%=      5-min Rain = 0
KNH1 101337Z 21008KT 05/01 A2977 RMK A01 T00530008  RH  072%=      5-min Rain = 0
KNH1 101338Z 21008KT 05/01 A2977 RMK A01 T00530007  RH  072%=      5-min Rain = 0
KNH1 101339Z 21008KT 05/01 A2977 RMK A01 T00540008  RH  072%=      5-min Rain = 0
KNH1 101340Z 21008KT 05/01 A2977 RMK A01 T00540008  RH  072%=      5-min Rain = 0
KNH1 101341Z 22009KT 06/01 A2977 RMK A01 T00550009  RH  072%=      5-min Rain = 0
KNH1 101342Z 22009KT 06/01 A2977 RMK A01 T00560009  RH  072%=      5-min Rain = 0
KNH1 101343Z 22009KT 06/01 A2977 RMK A01 T00560009  RH  071%=      5-min Rain = 0
KNH1 101344Z 22008KT 06/01 A2977 RMK A01 T00570009  RH  071%=      5-min Rain = 0
KNH1 101345Z 22008KT 06/01 A2977 RMK A01 T00560008  RH  071%=      5-min Rain = 0
KNH1 101346Z 22008KT 06/01 A2977 RMK A01 T00560008  RH  071%=      5-min Rain = 0
KNH1 101347Z 22008KT 06/01 A2977 RMK A01 T00550008  RH  072%=      5-min Rain = 0
KNH1 101348Z 21008KT 06/01 A2977 RMK A01 T00550008  RH  072%=      5-min Rain = 0
KNH1 101349Z 21008KT 06/01 A2977 RMK A01 T00550008  RH  072%=      5-min Rain = 0
KNH1 101350Z 21008KT 06/01 A2977 RMK A01 T00550008  RH  072%=      5-min Rain = 0
KNH1 101351Z 21008KT 06/01 A2977 RMK A01 T00550008  RH  072%=      5-min Rain = 0
KNH1 101352Z 21008KT 06/01 A2977 RMK A01 T00560009  RH  072%=      5-min Rain = 0
KNH1 101353Z 21007KT 06/01 A2977 RMK A01 T00570009  RH  071%=      5-min Rain = 0
KNH1 101354Z 21007KT 06/01 A2977 RMK A01 T00570009  RH  071%=      5-min Rain = 0
KNH1 101355Z 21008KT 06/01 A2977 RMK A01 T00570009  RH  071%=      5-min Rain = 0
KNH1 101356Z 21009KT 06/01 A2977 RMK A01 T00580009  RH  071%=      5-min Rain = 0
KNH1 101357Z 21009KT 06/01 A2977 RMK A01 T00590010  RH  071%=      5-min Rain = 0
KNH1 101358Z 20009KT 06/01 A2977 RMK A01 T00590009  RH  071%=      5-min Rain = 0
KNH1 101359Z 20009KT 06/01 A2976 RMK A01 T00590010  RH  071%=      5-min Rain = 0
KNH1 101400Z 20009KT 06/01 A2976 RMK A01 T00600010  RH  070%=      5-min Rain = 0
KNH1 101401Z 20009KT 06/01 A2976 RMK A01 T00600010  RH  070%=      5-min Rain = 0
KNH1 101402Z 21009KT 06/01 A2976 RMK A01 T00600010  RH  070%=      5-min Rain = 0
KNH1 101403Z 20009KT 06/01 A2976 RMK A01 T00600010  RH  070%=      5-min Rain = 0
KNH1 101404Z 21009KT 06/01 A2977 RMK A01 T00610010  RH  070%=      5-min Rain = 0
KNH1 101405Z 20009KT 06/01 A2976 RMK A01 T00610010  RH  070%=      5-min Rain = 0
KNH1 101406Z 20008KT 06/01 A2976 RMK A01 T00610010  RH  070%=      5-min Rain = 0
KNH1 101407Z 20009KT 06/01 A2976 RMK A01 T00610010  RH  070%=      5-min Rain = 0
KNH1 101408Z 20009KT 06/01 A2976 RMK A01 T00620011  RH  070%=      5-min Rain = 0
KNH1 101409Z 20009KT 06/01 A2976 RMK A01 T00620011  RH  070%=      5-min Rain = 0
KNH1 101410Z 20009KT 06/01 A2976 RMK A01 T00620011  RH  070%=      5-min Rain = 0
KNH1 101411Z 20009KT 06/01 A2976 RMK A01 T00620011  RH  070%=      5-min Rain = 0
KNH1 101412Z 20009KT 06/01 A2976 RMK A01 T00620011  RH  070%=      5-min Rain = 0
KNH1 101413Z 21009KT 06/01 A2976 RMK A01 T00620011  RH  070%=      5-min Rain = 0
KNH1 101414Z 21008KT 06/01 A2977 RMK A01 T00620011  RH  070%=      5-min Rain = 0
KNH1 101415Z 21009KT 06/01 A2976 RMK A01 T00620011  RH  070%=      5-min Rain = 0
KNH1 101416Z 21009KT 06/01 A2976 RMK A01 T00620011  RH  070%=      5-min Rain = 0
KNH1 101417Z 21009KT 06/01 A2976 RMK A01 T00630011  RH  070%=      5-min Rain = 0
KNH1 101418Z 21008KT 06/01 A2976 RMK A01 T00620011  RH  070%=      5-min Rain = 0
KNH1 101419Z 20009KT 06/01 A2976 RMK A01 T00620011  RH  070%=      5-min Rain = 0
KNH1 101420Z 20009KT 06/01 A2976 RMK A01 T00630011  RH  070%=      5-min Rain = 0
KNH1 101421Z 20009KT 06/01 A2976 RMK A01 T00630011  RH  069%=      5-min Rain = 0
KNH1 101422Z 20010KT 06/01 A2976 RMK A01 T00630011  RH  069%=      5-min Rain = 0
KNH1 101423Z 20010KT 06/01 A2976 RMK A01 T00640012  RH  069%=      5-min Rain = 0
KNH1 101424Z 20011KT 06/01 A2976 RMK A01 T00630011  RH  069%=      5-min Rain = 0
KNH1 101425Z 20010KT 06/01 A2976 RMK A01 T00640011  RH  069%=      5-min Rain = 0
KNH1 101426Z 20010KT 06/01 A2976 RMK A01 T00640011  RH  069%=      5-min Rain = 0
KNH1 101427Z 21010KT 06/01 A2976 RMK A01 T00640011  RH  069%=      5-min Rain = 0
KNH1 101428Z 22011KT 06/01 A2976 RMK A01 T00640012  RH  069%=      5-min Rain = 0
KNH1 101429Z 22010KT 07/01 A2977 RMK A01 T00650012  RH  069%=      5-min Rain = 0
KNH1 101430Z 22011KT 07/01 A2977 RMK A01 T00650012  RH  069%=      5-min Rain = 0
KNH1 101431Z 22010KT 07/01 A2977 RMK A01 T00650012  RH  069%=      5-min Rain = 0
KNH1 101432Z 22011KT 07/01 A2977 RMK A01 T00650012  RH  069%=      5-min Rain = 0
KNH1 101433Z 22010KT 07/01 A2977 RMK A01 T00650012  RH  069%=      5-min Rain = 0
KNH1 101434Z 22011KT 07/01 A2977 RMK A01 T00650012  RH  069%=      5-min Rain = 0
KNH1 101435Z 22011KT 07/01 A2976 RMK A01 T00650012  RH  069%=      5-min Rain = 0
KNH1 101436Z 22011KT 07/01 A2976 RMK A01 T00650012  RH  069%=      5-min Rain = 0
KNH1 101437Z 22010KT 07/01 A2977 RMK A01 T00650012  RH  069%=      5-min Rain = 0
KNH1 101438Z 22010KT 07/01 A2977 RMK A01 T00650012  RH  069%=      5-min Rain = 0
KNH1 101439Z 22010KT 07/01 A2977 RMK A01 T00650012  RH  069%=      5-min Rain = 0
KNH1 101440Z 22010KT 07/01 A2976 RMK A01 T00650013  RH  069%=      5-min Rain = 0
KNH1 101441Z 22010KT 07/01 A2976 RMK A01 T00650012  RH  069%=      5-min Rain = 0
KNH1 101442Z 21009KT 07/01 A2976 RMK A01 T00650013  RH  069%=      5-min Rain = 0
KNH1 101443Z 21010KT 07/01 A2976 RMK A01 T00650012  RH  069%=      5-min Rain = 0
KNH1 101444Z 22010KT 07/01 A2976 RMK A01 T00660012  RH  069%=      5-min Rain = 0
KNH1 101445Z 21010KT 07/01 A2976 RMK A01 T00660012  RH  069%=      5-min Rain = 0
KNH1 101446Z 21010KT 07/01 A2976 RMK A01 T00660013  RH  069%=      5-min Rain = 0
KNH1 101447Z 20011KT 07/01 A2976 RMK A01 T00660013  RH  069%=      5-min Rain = 0
KNH1 101448Z 20011KT 07/01 A2976 RMK A01 T00670013  RH  069%=      5-min Rain = 0
KNH1 101449Z 20011KT 07/01 A2976 RMK A01 T00680013  RH  068%=      5-min Rain = 0
KNH1 101450Z 21011KT 07/01 A2976 RMK A01 T00670013  RH  068%=      5-min Rain = 0
KNH1 101451Z 21011KT 07/01 A2976 RMK A01 T00680013  RH  068%=      5-min Rain = 0
KNH1 101452Z 21012KT 07/01 A2977 RMK A01 T00670013  RH  068%=      5-min Rain = 0
KNH1 101453Z 21011KT 07/01 A2977 RMK A01 T00680013  RH  068%=      5-min Rain = 0
KNH1 101454Z 21011KT 07/01 A2976 RMK A01 T00680014  RH  068%=      5-min Rain = 0
KNH1 101455Z 20011KT 07/01 A2976 RMK A01 T00680013  RH  068%=      5-min Rain = 0
KNH1 101456Z 20010KT 07/01 A2976 RMK A01 T00690014  RH  068%=      5-min Rain = 0
KNH1 101457Z 20011KT 07/01 A2976 RMK A01 T00690014  RH  068%=      5-min Rain = 0
KNH1 101458Z 20010KT 07/01 A2976 RMK A01 T00690013  RH  068%=      5-min Rain = 0
KNH1 101459Z 20010KT 07/01 A2976 RMK A01 T00700014  RH  068%=      5-min Rain = 0
KNH1 101500Z 20010KT 07/01 A2976 RMK A01 T00690013  RH  068%=      5-min Rain = 0
KNH1 101501Z 21010KT 07/01 A2976 RMK A01 T00690013  RH  068%=      5-min Rain = 0
KNH1 101502Z 21010KT 07/01 A2976 RMK A01 T00690013  RH  068%=      5-min Rain = 0
KNH1 101503Z 21010KT 07/01 A2976 RMK A01 T00690014  RH  068%=      5-min Rain = 0
KNH1 101504Z 21010KT 07/01 A2976 RMK A01 T00690013  RH  068%=      5-min Rain = 0
KNH1 101505Z 20009KT 07/01 A2976 RMK A01 T00690014  RH  068%=      5-min Rain = 0
KNH1 101506Z 21010KT 07/01 A2976 RMK A01 T00690014  RH  068%=      5-min Rain = 0
KNH1 101507Z 20011KT 07/01 A2976 RMK A01 T00690014  RH  068%=      5-min Rain = 0
KNH1 101508Z 20010KT 07/01 A2976 RMK A01 T00690014  RH  068%=      5-min Rain = 0
KNH1 101509Z 20011KT 07/01 A2976 RMK A01 T00690014  RH  068%=      5-min Rain = 0
KNH1 101510Z 20011KT 07/01 A2976 RMK A01 T00690014  RH  068%=      5-min Rain = 0
KNH1 101511Z 21011KT 07/01 A2976 RMK A01 T00690014  RH  068%=      5-min Rain = 0
KNH1 101512Z 21011KT 07/01 A2976 RMK A01 T00690014  RH  068%=      5-min Rain = 0
KNH1 101513Z 21010KT 07/01 A2976 RMK A01 T00700014  RH  068%=      5-min Rain = 0
KNH1 101514Z 21011KT 07/01 A2976 RMK A01 T00700014  RH  068%=      5-min Rain = 0
KNH1 101515Z 21011KT 07/02 A2976 RMK A01 T00710015  RH  067%=      5-min Rain = 0
KNH1 101516Z 21011KT 07/02 A2976 RMK A01 T00730015  RH  067%=      5-min Rain = 0
KNH1 101517Z 21011KT 07/02 A2976 RMK A01 T00740016  RH  066%=      5-min Rain = 0
KNH1 101518Z 22011KT 08/02 A2976 RMK A01 T00760017  RH  066%=      5-min Rain = 0
KNH1 101519Z 22011KT 08/02 A2976 RMK A01 T00770017  RH  066%=      5-min Rain = 0
KNH1 101520Z 22011KT 08/02 A2977 RMK A01 T00780017  RH  065%=      5-min Rain = 0
KNH1 101521Z 22012KT 08/02 A2977 RMK A01 T00800018  RH  065%=      5-min Rain = 0
KNH1 101522Z 22011KT 08/02 A2977 RMK A01 T00810018  RH  064%=      5-min Rain = 0
KNH1 101523Z 22011KT 08/02 A2976 RMK A01 T00820018  RH  064%=      5-min Rain = 0
KNH1 101524Z 22011KT 08/02 A2976 RMK A01 T00830018  RH  064%=      5-min Rain = 0
KNH1 101525Z 22010KT 08/02 A2976 RMK A01 T00840019  RH  064%=      5-min Rain = 0
KNH1 101526Z 22011KT 09/02 A2976 RMK A01 T00850019  RH  063%=      5-min Rain = 0
KNH1 101527Z 21010KT 09/02 A2976 RMK A01 T00860019  RH  063%=      5-min Rain = 0
KNH1 101528Z 21012KT 09/02 A2976 RMK A01 T00870019  RH  063%=      5-min Rain = 0
KNH1 101529Z 21010KT 09/02 A2976 RMK A01 T00880020  RH  062%=      5-min Rain = 0
KNH1 101530Z 21012KT 09/02 A2976 RMK A01 T00880020  RH  062%=      5-min Rain = 0
KNH1 101531Z 21012KT 09/02 A2976 RMK A01 T00890020  RH  062%=      5-min Rain = 0
KNH1 101532Z 21012KT 09/02 A2976 RMK A01 T00900020  RH  061%=      5-min Rain = 0
KNH1 101533Z 21013KT 09/02 A2976 RMK A01 T00910020  RH  061%=      5-min Rain = 0
KNH1 101534Z 21013KT 09/02 A2976 RMK A01 T00910020  RH  061%=      5-min Rain = 0
KNH1 101535Z 21011KT 09/02 A2976 RMK A01 T00920020  RH  061%=      5-min Rain = 0
KNH1 101536Z 21011KT 09/02 A2976 RMK A01 T00940022  RH  061%=      5-min Rain = 0
KNH1 101537Z 21012KT 10/02 A2976 RMK A01 T00960022  RH  060%=      5-min Rain = 0
KNH1 101538Z 20011KT 10/02 A2976 RMK A01 T00980023  RH  060%=      5-min Rain = 0
KNH1 101539Z 21011KT 10/02 A2976 RMK A01 T00990023  RH  059%=      5-min Rain = 0
KNH1 101540Z 21012KT 10/02 A2976 RMK A01 T01010023  RH  058%=      5-min Rain = 0
KNH1 101541Z 22014KT 10/02 A2976 RMK A01 T01020023  RH  058%=      5-min Rain = 0
KNH1 101542Z 22012G17KT 10/02 A2976 RMK A01 T01040023  RH  058%=      5-min Rain = 0
KNH1 101543Z 21013KT 11/03 A2976 RMK A01 T01060025  RH  057%=      5-min Rain = 0
KNH1 101544Z 21014KT 11/03 A2976 RMK A01 T01080025  RH  056%=      5-min Rain = 0
KNH1 101545Z 21012KT 11/03 A2976 RMK A01 T01100025  RH  056%=      5-min Rain = 0
KNH1 101546Z 21013KT 11/03 A2976 RMK A01 T01110025  RH  056%=      5-min Rain = 0
KNH1 101547Z 21012KT 11/03 A2976 RMK A01 T01110025  RH  055%=      5-min Rain = 0
KNH1 101548Z 22011KT 11/03 A2976 RMK A01 T01120025  RH  055%=      5-min Rain = 0
KNH1 101549Z 22014KT 11/03 A2976 RMK A01 T01130025  RH  055%=      5-min Rain = 0
KNH1 101550Z 22016KT 11/03 A2976 RMK A01 T01140025  RH  054%=      5-min Rain = 0
KNH1 101551Z 22016KT 11/02 A2976 RMK A01 T01140024  RH  054%=      5-min Rain = 0
KNH1 101552Z 22018KT 11/02 A2976 RMK A01 T01140024  RH  054%=      5-min Rain = 0
KNH1 101553Z 22016KT 11/02 A2976 RMK A01 T01140024  RH  054%=      5-min Rain = 0
KNH1 101554Z 22015KT 11/02 A2976 RMK A01 T01140023  RH  054%=      5-min Rain = 0
KNH1 101555Z 22015KT 11/02 A2976 RMK A01 T01130023  RH  054%=      5-min Rain = 0
KNH1 101556Z 22015KT 11/02 A2976 RMK A01 T01140023  RH  054%=      5-min Rain = 0
KNH1 101557Z 22016KT 11/02 A2976 RMK A01 T01130023  RH  054%=      5-min Rain = 0
KNH1 101558Z 21016KT 11/02 A2976 RMK A01 T01140023  RH  054%=      5-min Rain = 0
KNH1 101559Z 21015KT 11/02 A2976 RMK A01 T01140023  RH  054%=      5-min Rain = 0
KNH1 101600Z 21013KT 11/02 A2976 RMK A01 T01140023  RH  054%=      5-min Rain = 0
KNH1 101601Z 21015KT 11/02 A2976 RMK A01 T01140023  RH  053%=      5-min Rain = 0
KNH1 101602Z 21016KT 12/02 A2976 RMK A01 T01160023  RH  053%=      5-min Rain = 0
KNH1 101603Z 21016KT 12/02 A2976 RMK A01 T01160023  RH  053%=      5-min Rain = 0
KNH1 101604Z 21015KT 12/02 A2976 RMK A01 T01170023  RH  053%=      5-min Rain = 0
KNH1 101605Z 21018KT 12/02 A2976 RMK A01 T01160022  RH  053%=      5-min Rain = 0
KNH1 101606Z 22014KT 12/02 A2976 RMK A01 T01150022  RH  053%=      5-min Rain = 0
KNH1 101607Z 22014KT 12/02 A2976 RMK A01 T01150023  RH  053%=      5-min Rain = 0
KNH1 101608Z 21014KT 12/02 A2976 RMK A01 T01170024  RH  053%=      5-min Rain = 0
KNH1 101609Z 21015KT 12/02 A2976 RMK A01 T01170023  RH  052%=      5-min Rain = 0
KNH1 101610Z 22015KT 12/02 A2976 RMK A01 T01170022  RH  052%=      5-min Rain = 0
KNH1 101611Z 21013KT 12/02 A2976 RMK A01 T01170022  RH  052%=      5-min Rain = 0
KNH1 101612Z 21013KT 12/02 A2976 RMK A01 T01170023  RH  052%=      5-min Rain = 0
KNH1 101613Z 21013KT 12/02 A2976 RMK A01 T01170023  RH  052%=      5-min Rain = 0
KNH1 101614Z 21013KT 12/02 A2976 RMK A01 T01190023  RH  052%=      5-min Rain = 0
KNH1 101615Z 21012KT 12/02 A2977 RMK A01 T01200023  RH  052%=      5-min Rain = 0
KNH1 101616Z 21012KT 12/03 A2977 RMK A01 T01220025  RH  051%=      5-min Rain = 0
KNH1 101617Z 22013KT 12/02 A2977 RMK A01 T01220024  RH  051%=      5-min Rain = 0
KNH1 101618Z 22014KT 12/02 A2977 RMK A01 T01230024  RH  051%=      5-min Rain = 0
KNH1 101619Z 22015KT 12/02 A2977 RMK A01 T01240024  RH  051%=      5-min Rain = 0
KNH1 101620Z 22013KT 13/03 A2977 RMK A01 T01250025  RH  050%=      5-min Rain = 0
KNH1 101621Z 22013KT 13/03 A2977 RMK A01 T01270025  RH  050%=      5-min Rain = 0
KNH1 101622Z 23014KT 13/03 A2977 RMK A01 T01270026  RH  050%=      5-min Rain = 0
KNH1 101623Z 22014KT 13/03 A2977 RMK A01 T01280025  RH  050%=      5-min Rain = 0
KNH1 101624Z 22014KT 13/03 A2977 RMK A01 T01280025  RH  050%=      5-min Rain = 0
KNH1 101625Z 22015KT 13/03 A2977 RMK A01 T01280025  RH  049%=      5-min Rain = 0
KNH1 101626Z 22014KT 13/03 A2977 RMK A01 T01280025  RH  049%=      5-min Rain = 0
KNH1 101627Z 21014KT 13/03 A2976 RMK A01 T01300026  RH  049%=      5-min Rain = 0
KNH1 101628Z 21014KT 13/03 A2976 RMK A01 T01310026  RH  049%=      5-min Rain = 0
KNH1 101629Z 21014KT 13/03 A2976 RMK A01 T01330026  RH  048%=      5-min Rain = 0
KNH1 101630Z 22014KT 13/03 A2976 RMK A01 T01330025  RH  048%=      5-min Rain = 0
KNH1 101631Z 21013G18KT 13/03 A2976 RMK A01 T01340026  RH  048%=      5-min Rain = 0
KNH1 101632Z 22015KT 14/03 A2976 RMK A01 T01370027  RH  047%=      5-min Rain = 0
KNH1 101633Z 22015KT 14/03 A2977 RMK A01 T01360025  RH  047%=      5-min Rain = 0
KNH1 101634Z 22012KT 14/03 A2977 RMK A01 T01360026  RH  047%=      5-min Rain = 0
KNH1 101635Z 21015KT 14/03 A2977 RMK A01 T01380026  RH  047%=      5-min Rain = 0
KNH1 101636Z 21012KT 14/03 A2977 RMK A01 T01390026  RH  046%=      5-min Rain = 0
KNH1 101637Z 22013KT 14/03 A2977 RMK A01 T01400026  RH  046%=      5-min Rain = 0
KNH1 101638Z 21012KT 14/03 A2977 RMK A01 T01410027  RH  046%=      5-min Rain = 0
KNH1 101639Z 21013KT 14/03 A2977 RMK A01 T01410026  RH  046%=      5-min Rain = 0
KNH1 101640Z 21011KT 14/03 A2977 RMK A01 T01420027  RH  046%=      5-min Rain = 0
KNH1 101641Z 21012KT 14/03 A2977 RMK A01 T01430027  RH  045%=      5-min Rain = 0
KNH1 101642Z 21013KT 14/03 A2977 RMK A01 T01440027  RH  045%=      5-min Rain = 0
KNH1 101643Z 21012KT 14/03 A2977 RMK A01 T01440026  RH  045%=      5-min Rain = 0
KNH1 101644Z 22012KT 15/03 A2977 RMK A01 T01450027  RH  045%=      5-min Rain = 0
KNH1 101645Z 23013KT 15/03 A2976 RMK A01 T01450025  RH  044%=      5-min Rain = 0
KNH1 101646Z 22013KT 15/03 A2976 RMK A01 T01460026  RH  044%=      5-min Rain = 0
KNH1 101647Z 22014KT 15/03 A2976 RMK A01 T01470026  RH  044%=      5-min Rain = 0
KNH1 101648Z 22011KT 15/03 A2976 RMK A01 T01470026  RH  044%=      5-min Rain = 0
KNH1 101649Z 21011KT 15/03 A2976 RMK A01 T01480026  RH  044%=      5-min Rain = 0
KNH1 101650Z 21011KT 15/03 A2977 RMK A01 T01490027  RH  044%=      5-min Rain = 0
KNH1 101651Z 22012KT 15/03 A2976 RMK A01 T01500028  RH  044%=      5-min Rain = 0
KNH1 101652Z 21011KT 15/03 A2976 RMK A01 T01510027  RH  043%=      5-min Rain = 0
KNH1 101653Z 22012KT 15/03 A2976 RMK A01 T01510027  RH  043%=      5-min Rain = 0
KNH1 101654Z 23013KT 15/03 A2976 RMK A01 T01510026  RH  043%=      5-min Rain = 0
KNH1 101655Z 22012KT 15/03 A2976 RMK A01 T01510026  RH  043%=      5-min Rain = 0
KNH1 101656Z 22013KT 15/03 A2976 RMK A01 T01510027  RH  043%=      5-min Rain = 0
KNH1 101657Z 22014KT 15/03 A2976 RMK A01 T01530027  RH  043%=      5-min Rain = 0
KNH1 101658Z 23013KT 15/03 A2976 RMK A01 T01520026  RH  042%=      5-min Rain = 0
KNH1 101659Z 22014KT 15/03 A2976 RMK A01 T01530026  RH  042%=      5-min Rain = 0
KNH1 101700Z 22013KT 15/03 A2976 RMK A01 T01540026  RH  042%=      5-min Rain = 0
KNH1 101701Z 22013KT 15/03 A2976 RMK A01 T01540026  RH  042%=      5-min Rain = 0
KNH1 101702Z 22016KT 16/03 A2976 RMK A01 T01560025  RH  041%=      5-min Rain = 0
KNH1 101703Z 22015KT 16/02 A2976 RMK A01 T01570024  RH  041%=      5-min Rain = 0
KNH1 101704Z 22015KT 16/02 A2976 RMK A01 T01570024  RH  041%=      5-min Rain = 0
KNH1 101705Z 22014KT 16/03 A2975 RMK A01 T01580025  RH  041%=      5-min Rain = 0
KNH1 101706Z 22013KT 16/03 A2975 RMK A01 T01610026  RH  040%=      5-min Rain = 0
KNH1 101707Z 22014KT 16/03 A2975 RMK A01 T01640026  RH  040%=      5-min Rain = 0
KNH1 101708Z 22014KT 16/03 A2975 RMK A01 T01640025  RH  039%=      5-min Rain = 0
KNH1 101709Z 21017KT 16/03 A2975 RMK A01 T01640025  RH  039%=      5-min Rain = 0
KNH1 101710Z 21016KT 16/02 A2975 RMK A01 T01640024  RH  039%=      5-min Rain = 0
KNH1 101711Z 22015KT 16/02 A2975 RMK A01 T01630024  RH  039%=      5-min Rain = 0
KNH1 101712Z 22015KT 16/03 A2975 RMK A01 T01640025  RH  039%=      5-min Rain = 0
KNH1 101713Z 22017KT 16/02 A2975 RMK A01 T01640024  RH  039%=      5-min Rain = 0
KNH1 101714Z 22018KT 16/02 A2975 RMK A01 T01640023  RH  039%=      5-min Rain = 0
KNH1 101715Z 21017KT 16/02 A2974 RMK A01 T01640022  RH  038%=      5-min Rain = 0
KNH1 101716Z 21014KT 16/02 A2974 RMK A01 T01640023  RH  039%=      5-min Rain = 0
KNH1 101717Z 22015KT 17/02 A2974 RMK A01 T01660024  RH  038%=      5-min Rain = 0
KNH1 101718Z 22014KT 17/02 A2974 RMK A01 T01670024  RH  038%=      5-min Rain = 0
KNH1 101719Z 21012KT 17/03 A2974 RMK A01 T01680025  RH  038%=      5-min Rain = 0
KNH1 101720Z 21014KT 17/03 A2974 RMK A01 T01700026  RH  038%=      5-min Rain = 0
KNH1 101721Z 21014KT 17/02 A2974 RMK A01 T01700024  RH  037%=      5-min Rain = 0
KNH1 101722Z 21014KT 17/03 A2974 RMK A01 T01710025  RH  037%=      5-min Rain = 0
KNH1 101723Z 21012KT 17/02 A2974 RMK A01 T01720024  RH  037%=      5-min Rain = 0
KNH1 101724Z 21016KT 17/02 A2974 RMK A01 T01730024  RH  037%=      5-min Rain = 0
KNH1 101725Z 22014KT 17/02 A2974 RMK A01 T01730023  RH  036%=      5-min Rain = 0
KNH1 101726Z 21016KT 17/02 A2974 RMK A01 T01730023  RH  036%=      5-min Rain = 0
KNH1 101727Z 22014KT 17/02 A2974 RMK A01 T01730023  RH  036%=      5-min Rain = 0
KNH1 101728Z 22014KT 17/02 A2973 RMK A01 T01730023  RH  036%=      5-min Rain = 0
KNH1 101729Z 22013KT 17/02 A2973 RMK A01 T01740024  RH  036%=      5-min Rain = 0
KNH1 101730Z 22015KT 17/02 A2973 RMK A01 T01740024  RH  036%=      5-min Rain = 0
KNH1 101731Z 22016KT 18/02 A2973 RMK A01 T01760024  RH  036%=      5-min Rain = 0
KNH1 101732Z 22014KT 18/02 A2973 RMK A01 T01770023  RH  036%=      5-min Rain = 0
KNH1 101733Z 22015KT 18/02 A2973 RMK A01 T01770023  RH  035%=      5-min Rain = 0
KNH1 101734Z 21015KT 18/02 A2973 RMK A01 T01780023  RH  035%=      5-min Rain = 0
KNH1 101735Z 22016KT 18/02 A2973 RMK A01 T01780022  RH  035%=      5-min Rain = 0
KNH1 101736Z 22016KT 18/02 A2973 RMK A01 T01780023  RH  035%=      5-min Rain = 0
KNH1 101737Z 22016KT 18/02 A2973 RMK A01 T01780022  RH  035%=      5-min Rain = 0
KNH1 101738Z 21015KT 18/02 A2973 RMK A01 T01770022  RH  035%=      5-min Rain = 0
KNH1 101739Z 22013KT 18/02 A2973 RMK A01 T01800024  RH  035%=      5-min Rain = 0
KNH1 101740Z 22016KT 18/02 A2973 RMK A01 T01830024  RH  035%=      5-min Rain = 0
KNH1 101741Z 22015KT 18/02 A2973 RMK A01 T01830023  RH  034%=      5-min Rain = 0
KNH1 101742Z 22015KT 18/02 A2973 RMK A01 T01830023  RH  034%=      5-min Rain = 0
KNH1 101743Z 22012KT 18/02 A2973 RMK A01 T01820023  RH  035%=      5-min Rain = 0
KNH1 101744Z 22015KT 18/02 A2973 RMK A01 T01830024  RH  034%=      5-min Rain = 0
KNH1 101745Z 21016KT 18/02 A2973 RMK A01 T01830023  RH  034%=      5-min Rain = 0
KNH1 101746Z 21014KT 18/02 A2973 RMK A01 T01820024  RH  035%=      5-min Rain = 0
KNH1 101747Z 22013KT 18/02 A2973 RMK A01 T01830024  RH  035%=      5-min Rain = 0
KNH1 101748Z 23015G21KT 19/03 A2973 RMK A01 T01850025  RH  034%=      5-min Rain = 0
KNH1 101749Z 22014KT 19/02 A2973 RMK A01 T01850023  RH  034%=      5-min Rain = 0
KNH1 101750Z 23015KT 19/02 A2973 RMK A01 T01850024  RH  034%=      5-min Rain = 0
KNH1 101751Z 22013KT 19/02 A2972 RMK A01 T01860024  RH  034%=      5-min Rain = 0
KNH1 101752Z 23012KT 19/03 A2972 RMK A01 T01860025  RH  034%=      5-min Rain = 0
KNH1 101753Z 23015KT 19/03 A2972 RMK A01 T01870026  RH  034%=      5-min Rain = 0
KNH1 101754Z 22017KT 19/03 A2972 RMK A01 T01870025  RH  034%=      5-min Rain = 0
KNH1 101755Z 22015KT 19/02 A2972 RMK A01 T01860023  RH  034%=      5-min Rain = 0
KNH1 101756Z 21015KT 19/02 A2972 RMK A01 T01860024  RH  034%=      5-min Rain = 0
KNH1 101757Z 22014KT 19/02 A2972 RMK A01 T01850024  RH  034%=      5-min Rain = 0
KNH1 101758Z 22016KT 18/02 A2971 RMK A01 T01840024  RH  034%=      5-min Rain = 0
KNH1 101759Z 21013KT 18/02 A2971 RMK A01 T01830024  RH  035%=      5-min Rain = 0
KNH1 101800Z 21016KT 18/03 A2971 RMK A01 T01840025  RH  035%=      5-min Rain = 0
KNH1 101801Z 21015KT 19/03 A2971 RMK A01 T01850025  RH  034%=      5-min Rain = 0
KNH1 101802Z 22015KT 19/03 A2971 RMK A01 T01850025  RH  034%=      5-min Rain = 0
KNH1 101803Z 21014KT 19/03 A2971 RMK A01 T01860026  RH  034%=      5-min Rain = 0
KNH1 101804Z 21014KT 19/03 A2971 RMK A01 T01880026  RH  034%=      5-min Rain = 0
KNH1 101805Z 22011KT 19/03 A2971 RMK A01 T01880026  RH  034%=      5-min Rain = 0
KNH1 101806Z 21011KT 19/03 A297 RMK A01 T01910027  RH  034%=      5-min Rain = 0
KNH1 101807Z 21013KT 19/03 A297 RMK A01 T01930027  RH  033%=      5-min Rain = 0
KNH1 101808Z 20016KT 19/03 A297 RMK A01 T01930025  RH  033%=      5-min Rain = 0
KNH1 101809Z 21014KT 19/02 A297 RMK A01 T01900024  RH  033%=      5-min Rain = 0
KNH1 101810Z 20015KT 19/03 A297 RMK A01 T01890025  RH  033%=      5-min Rain = 0
KNH1 101811Z 20017KT 19/03 A297 RMK A01 T01910025  RH  033%=      5-min Rain = 0
KNH1 101812Z 21014KT 19/03 A297 RMK A01 T01920025  RH  033%=      5-min Rain = 0
KNH1 101813Z 20015KT 19/03 A297 RMK A01 T01940027  RH  033%=      5-min Rain = 0
KNH1 101814Z 21013KT 20/03 A297 RMK A01 T01950026  RH  032%=      5-min Rain = 0
KNH1 101815Z 22015KT 20/03 A297 RMK A01 T01960025  RH  032%=      5-min Rain = 0
KNH1 101816Z 22015KT 20/03 A297 RMK A01 T01960026  RH  032%=      5-min Rain = 0
KNH1 101817Z 22017KT 20/02 A297 RMK A01 T01960024  RH  032%=      5-min Rain = 0
KNH1 101818Z 21014KT 20/02 A297 RMK A01 T01950023  RH  032%=      5-min Rain = 0
KNH1 101819Z 22014KT 20/02 A297 RMK A01 T01950024  RH  032%=      5-min Rain = 0
KNH1 101820Z 21015KT 20/03 A2969 RMK A01 T01960025  RH  032%=      5-min Rain = 0
KNH1 101821Z 22013KT 20/03 A297 RMK A01 T01980025  RH  032%=      5-min Rain = 0
KNH1 101822Z 21014KT 20/03 A2969 RMK A01 T01990026  RH  032%=      5-min Rain = 0
KNH1 101823Z 21016KT 20/03 A2969 RMK A01 T01990025  RH  032%=      5-min Rain = 0
KNH1 101824Z 22015KT 20/03 A2969 RMK A01 T01970025  RH  032%=      5-min Rain = 0
KNH1 101825Z 21016KT 20/03 A2969 RMK A01 T01960025  RH  032%=      5-min Rain = 0
KNH1 101826Z 21015KT 20/03 A2969 RMK A01 T01950025  RH  032%=      5-min Rain = 0
KNH1 101827Z 21014KT 20/03 A2969 RMK A01 T01950025  RH  032%=      5-min Rain = 0
KNH1 101828Z 21014KT 20/03 A2969 RMK A01 T01960025  RH  032%=      5-min Rain = 0
KNH1 101829Z 21015KT 20/03 A2969 RMK A01 T01970026  RH  032%=      5-min Rain = 0
KNH1 101830Z 21014KT 20/03 A2969 RMK A01 T01980026  RH  032%=      5-min Rain = 0
KNH1 101831Z 22015KT 20/03 A2969 RMK A01 T01990026  RH  032%=      5-min Rain = 0
KNH1 101832Z 22014KT 20/03 A2969 RMK A01 T01990025  RH  032%=      5-min Rain = 0
KNH1 101833Z 22016KT 20/03 A2969 RMK A01 T02000026  RH  032%=      5-min Rain = 0
KNH1 101834Z 22016KT 20/03 A2968 RMK A01 T02010025  RH  031%=      5-min Rain = 0
KNH1 101835Z 22015KT 20/02 A2968 RMK A01 T02020024  RH  031%=      5-min Rain = 0
KNH1 101836Z 22013G18KT 20/02 A2968 RMK A01 T02010024  RH  031%=      5-min Rain = 0
KNH1 101837Z 22015KT 20/02 A2968 RMK A01 T02030024  RH  031%=      5-min Rain = 0
KNH1 101838Z 23014G19KT 20/02 A2968 RMK A01 T02040024  RH  030%=      5-min Rain = 0
KNH1 101839Z 23016KT 21/02 A2968 RMK A01 T02050022  RH  030%=      5-min Rain = 0
KNH1 101840Z 23013KT 21/02 A2968 RMK A01 T02050023  RH  030%=      5-min Rain = 0
KNH1 101841Z 22011KT 20/02 A2968 RMK A01 T02040023  RH  030%=      5-min Rain = 0
KNH1 101842Z 22013KT 21/03 A2967 RMK A01 T02060025  RH  030%=      5-min Rain = 0
KNH1 101843Z 22013KT 21/03 A2967 RMK A01 T02060025  RH  030%=      5-min Rain = 0
KNH1 101844Z 22012KT 21/03 A2967 RMK A01 T02070025  RH  030%=      5-min Rain = 0
KNH1 101845Z 21013KT 21/03 A2967 RMK A01 T02090025  RH  030%=      5-min Rain = 0
KNH1 101846Z 22013KT 21/02 A2967 RMK A01 T02090024  RH  029%=      5-min Rain = 0
KNH1 101847Z 22015KT 21/03 A2967 RMK A01 T02080025  RH  030%=      5-min Rain = 0
KNH1 101848Z 21014KT 21/03 A2967 RMK A01 T02080026  RH  030%=      5-min Rain = 0
KNH1 101849Z 23013KT 21/02 A2967 RMK A01 T02080024  RH  030%=      5-min Rain = 0
KNH1 101850Z 22016KT 21/02 A2967 RMK A01 T02100024  RH  029%=      5-min Rain = 0
KNH1 101851Z 22016G22KT 21/02 A2967 RMK A01 T02110023  RH  029%=      5-min Rain = 0
KNH1 101852Z 22015KT 21/02 A2967 RMK A01 T02120022  RH  029%=      5-min Rain = 0
KNH1 101853Z 24017KT 21/02 A2967 RMK A01 T02100021  RH  028%=      5-min Rain = 0
KNH1 101854Z 23018G23KT 21/02 A2966 RMK A01 T02090022  RH  029%=      5-min Rain = 0
KNH1 101855Z 21015KT 21/02 A2966 RMK A01 T02080022  RH  029%=      5-min Rain = 0
KNH1 101856Z 22016KT 21/02 A2966 RMK A01 T02090024  RH  029%=      5-min Rain = 0
KNH1 101857Z 23016KT 21/02 A2966 RMK A01 T02100022  RH  029%=      5-min Rain = 0
KNH1 101858Z 22015KT 21/02 A2966 RMK A01 T02100023  RH  029%=      5-min Rain = 0
KNH1 101859Z 22016KT 21/02 A2966 RMK A01 T02090023  RH  029%=      5-min Rain = 0
KNH1 101900Z 22014KT 21/02 A2966 RMK A01 T02100023  RH  029%=      5-min Rain = 0
KNH1 101901Z 22015KT 21/02 A2966 RMK A01 T02100024  RH  029%=      5-min Rain = 0
KNH1 101902Z 22015KT 21/02 A2965 RMK A01 T02110024  RH  029%=      5-min Rain = 0
KNH1 101903Z 21015KT 21/02 A2965 RMK A01 T02100023  RH  029%=      5-min Rain = 0
KNH1 101904Z 21015KT 21/02 A2965 RMK A01 T02110024  RH  029%=      5-min Rain = 0
KNH1 101905Z 21014KT 21/02 A2965 RMK A01 T02110024  RH  029%=      5-min Rain = 0
KNH1 101906Z 22015KT 21/02 A2965 RMK A01 T02130024  RH  029%=      5-min Rain = 0
KNH1 101907Z 23018KT 22/02 A2965 RMK A01 T02150023  RH  028%=      5-min Rain = 0
KNH1 101908Z 23016KT 22/02 A2965 RMK A01 T02160023  RH  028%=      5-min Rain = 0
KNH1 101909Z 23017KT 22/02 A2965 RMK A01 T02150022  RH  028%=      5-min Rain = 0
KNH1 101910Z 23016KT 21/02 A2965 RMK A01 T02140022  RH  028%=      5-min Rain = 0
KNH1 101911Z 23019KT 22/02 A2964 RMK A01 T02150022  RH  028%=      5-min Rain = 0
KNH1 101912Z 23016KT 22/02 A2964 RMK A01 T02150022  RH  028%=      5-min Rain = 0
KNH1 101913Z 23014KT 22/02 A2964 RMK A01 T02150023  RH  028%=      5-min Rain = 0
KNH1 101914Z 23019KT 22/02 A2964 RMK A01 T02160023  RH  028%=      5-min Rain = 0
KNH1 101915Z 23015KT 22/02 A2964 RMK A01 T02170022  RH  028%=      5-min Rain = 0
KNH1 101916Z 22014G20KT 22/02 A2964 RMK A01 T02170024  RH  028%=      5-min Rain = 0
KNH1 101917Z 23015KT 22/02 A2964 RMK A01 T02210024  RH  027%=      5-min Rain = 0
KNH1 101918Z 22016KT 22/02 A2964 RMK A01 T02210022  RH  027%=      5-min Rain = 0
KNH1 101919Z 23017G24KT 22/02 A2963 RMK A01 T02200021  RH  027%=      5-min Rain = 0
KNH1 101920Z 22020KT 22/02 A2963 RMK A01 T02190021  RH  027%=      5-min Rain = 0
KNH1 101921Z 23018G23KT 22/02 A2963 RMK A01 T02190020  RH  027%=      5-min Rain = 0
KNH1 101922Z 23020KT 22/02 A2963 RMK A01 T02190019  RH  027%=      5-min Rain = 0
KNH1 101923Z 23017KT 22/02 A2963 RMK A01 T02200020  RH  027%=      5-min Rain = 0
KNH1 101924Z 25017KT 22/02 A2963 RMK A01 T02220020  RH  026%=      5-min Rain = 0
KNH1 101925Z 23016KT 22/02 A2963 RMK A01 T02230019  RH  026%=      5-min Rain = 0
KNH1 101926Z 22016G21KT 22/02 A2963 RMK A01 T02240018  RH  026%=      5-min Rain = 0
KNH1 101927Z 23015KT 22/02 A2963 RMK A01 T02230018  RH  026%=      5-min Rain = 0
KNH1 101928Z 23016G21KT 22/02 A2963 RMK A01 T02220018  RH  026%=      5-min Rain = 0
KNH1 101929Z 22015KT 22/02 A2963 RMK A01 T02210018  RH  026%=      5-min Rain = 0
KNH1 101930Z 23019KT 22/02 A2962 RMK A01 T02210018  RH  026%=      5-min Rain = 0
KNH1 101931Z 22020KT 22/02 A2962 RMK A01 T02230016  RH  025%=      5-min Rain = 0
KNH1 101932Z 25018KT 22/02 A2962 RMK A01 T02240015  RH  025%=      5-min Rain = 0
KNH1 101933Z 23016KT 23/02 A2962 RMK A01 T02270015  RH  025%=      5-min Rain = 0
KNH1 101934Z 24021KT 23/02 A2962 RMK A01 T02290016  RH  024%=      5-min Rain = 0
KNH1 101935Z 23019KT 23/02 A2962 RMK A01 T02280015  RH  024%=      5-min Rain = 0
KNH1 101936Z 23017KT 23/02 A2962 RMK A01 T02270015  RH  025%=      5-min Rain = 0
KNH1 101937Z 24016KT 23/02 A2962 RMK A01 T02260015  RH  025%=      5-min Rain = 0
KNH1 101938Z 24017KT 23/01 A2962 RMK A01 T02270013  RH  024%=      5-min Rain = 0
KNH1 101939Z 24016KT 23/01 A2962 RMK A01 T02270014  RH  025%=      5-min Rain = 0
KNH1 101940Z 24018KT 23/01 A2962 RMK A01 T02270014  RH  025%=      5-min Rain = 0
KNH1 101941Z 24018KT 23/01 A2962 RMK A01 T02280014  RH  024%=      5-min Rain = 0
KNH1 101942Z 23018G25KT 23/01 A2961 RMK A01 T02290013  RH  024%=      5-min Rain = 0
KNH1 101943Z 23019KT 23/01 A2961 RMK A01 T02290012  RH  024%=      5-min Rain = 0
KNH1 101944Z 24018KT 23/01 A2961 RMK A01 T02260012  RH  024%=      5-min Rain = 0
KNH1 101945Z 22018KT 23/01 A2961 RMK A01 T02270012  RH  024%=      5-min Rain = 0
KNH1 101946Z 23018KT 23/01 A2961 RMK A01 T02270011  RH  024%=      5-min Rain = 0
KNH1 101947Z 23015KT 23/01 A2961 RMK A01 T02270012  RH  024%=      5-min Rain = 0
KNH1 101948Z 22016G21KT 23/01 A2961 RMK A01 T02280013  RH  024%=      5-min Rain = 0
KNH1 101949Z 23022KT 23/01 A2961 RMK A01 T02290013  RH  024%=      5-min Rain = 0
KNH1 101950Z 22019KT 23/01 A2961 RMK A01 T02310013  RH  024%=      5-min Rain = 0
KNH1 101951Z 22016KT 23/01 A2961 RMK A01 T02310011  RH  023%=      5-min Rain = 0
KNH1 101952Z 22015KT 23/01 A2961 RMK A01 T02300013  RH  024%=      5-min Rain = 0
KNH1 101953Z 23015G21KT 23/01 A2961 RMK A01 T02300014  RH  024%=      5-min Rain = 0
KNH1 101954Z 22016KT 23/01 A2961 RMK A01 T02310012  RH  024%=      5-min Rain = 0
KNH1 101955Z 22017KT 23/01 A2961 RMK A01 T02300012  RH  024%=      5-min Rain = 0
KNH1 101956Z 22014KT 23/01 A2961 RMK A01 T02290011  RH  024%=      5-min Rain = 0
KNH1 101957Z 23012G18KT 23/01 A2961 RMK A01 T02280011  RH  024%=      5-min Rain = 0
KNH1 101958Z 23022G27KT 23/01 A2961 RMK A01 T02290013  RH  024%=      5-min Rain = 0
KNH1 101959Z 23022KT 23/01 A2961 RMK A01 T02300012  RH  024%=      5-min Rain = 0
KNH1 102000Z 23022KT 23/01 A2961 RMK A01 T02310012  RH  024%=      5-min Rain = 0
KNH1 102001Z 22021KT 23/01 A296 RMK A01 T02300011  RH  024%=      5-min Rain = 0
KNH1 102002Z 23021KT 23/01 A296 RMK A01 T02310010  RH  023%=      5-min Rain = 0
KNH1 102003Z 23018G23KT 23/01 A296 RMK A01 T02300010  RH  023%=      5-min Rain = 0
KNH1 102004Z 23018KT 23/01 A296 RMK A01 T02300010  RH  023%=      5-min Rain = 0
KNH1 102005Z 23018KT 23/01 A296 RMK A01 T02300012  RH  024%=      5-min Rain = 0
KNH1 102006Z 23015G20KT 23/01 A296 RMK A01 T02310012  RH  024%=      5-min Rain = 0
KNH1 102007Z 23018KT 23/01 A296 RMK A01 T02310012  RH  024%=      5-min Rain = 0
KNH1 102008Z 23015KT 23/01 A296 RMK A01 T02310011  RH  023%=      5-min Rain = 0
KNH1 102009Z 23019KT 23/01 A296 RMK A01 T02320011  RH  023%=      5-min Rain = 0
KNH1 102010Z 24017G22KT 23/01 A296 RMK A01 T02330005  RH  022%=      5-min Rain = 0
KNH1 102011Z 25018KT 24/01 A296 RMK A01 T02360005  RH  022%=      5-min Rain = 0
KNH1 102012Z 25023G28KT 24/00 A296 RMK A01 T02390001  RH  021%=      5-min Rain = 0
KNH1 102013Z 25024G30KT 24/M00 A296 RMK A01 T02391002  RH  020%=      5-min Rain = 0
KNH1 102014Z 25020KT 24/M01 A296 RMK A01 T02371006  RH  020%=      5-min Rain = 0
KNH1 102015Z 24023G32KT 24/M01 A296 RMK A01 T02351005  RH  020%=      5-min Rain = 0
KNH1 102016Z 25020G30KT 24/M01 A2959 RMK A01 T02371005  RH  020%=      5-min Rain = 0
KNH1 102017Z 21022G27KT 24/00 A2959 RMK A01 T02370000  RH  021%=      5-min Rain = 0
KNH1 102018Z 21017KT 24/01 A2959 RMK A01 T02370011  RH  022%=      5-min Rain = 0
KNH1 102019Z 22019G24KT 24/01 A2959 RMK A01 T02360010  RH  023%=      5-min Rain = 0
KNH1 102020Z 22020G29KT 23/01 A2959 RMK A01 T02340010  RH  023%=      5-min Rain = 0
KNH1 102021Z 23026G31KT 23/M00 A2959 RMK A01 T02341001  RH  021%=      5-min Rain = 0
KNH1 102022Z 23025KT 23/M01 A2959 RMK A01 T02331006  RH  021%=      5-min Rain = 0
KNH1 102023Z 24022KT 23/M01 A2959 RMK A01 T02331007  RH  020%=      5-min Rain = 0
KNH1 102024Z 23028G33KT 23/M01 A2958 RMK A01 T02321008  RH  020%=      5-min Rain = 0
KNH1 102025Z 23028G34KT 23/M01 A2958 RMK A01 T02321009  RH  020%=      5-min Rain = 0
KNH1 102026Z 24029KT 23/M01 A2958 RMK A01 T02321010  RH  020%=      5-min Rain = 0
KNH1 102027Z 25027G33KT 23/M01 A2958 RMK A01 T02321010  RH  020%=      5-min Rain = 0
KNH1 102028Z 25027G32KT 23/M01 A2958 RMK A01 T02321011  RH  020%=      5-min Rain = 0
KNH1 102029Z 25023G29KT 23/M01 A2958 RMK A01 T02321009  RH  020%=      5-min Rain = 0
KNH1 102030Z 25027G32KT 23/M01 A2958 RMK A01 T02331009  RH  020%=      5-min Rain = 0
KNH1 102031Z 24025KT 23/M01 A2958 RMK A01 T02331011  RH  020%=      5-min Rain = 0
KNH1 102032Z 23025G30KT 23/M01 A2958 RMK A01 T02331009  RH  020%=      5-min Rain = 0
KNH1 102033Z 23021G29KT 23/M01 A2958 RMK A01 T02341006  RH  020%=      5-min Rain = 0
KNH1 102034Z 22021G29KT 23/M01 A2958 RMK A01 T02341005  RH  020%=      5-min Rain = 0
KNH1 102035Z 23025KT 23/M00 A2958 RMK A01 T02341004  RH  021%=      5-min Rain = 0
KNH1 102036Z 24028G33KT 23/M01 A2958 RMK A01 T02341007  RH  020%=      5-min Rain = 0
KNH1 102037Z 24027KT 23/M01 A2958 RMK A01 T02331009  RH  020%=      5-min Rain = 0
KNH1 102038Z 24023G28KT 23/M01 A2958 RMK A01 T02321009  RH  020%=      5-min Rain = 0
KNH1 102039Z 23019G27KT 23/M01 A2958 RMK A01 T02331008  RH  020%=      5-min Rain = 0
KNH1 102040Z 23025G31KT 24/M01 A2958 RMK A01 T02351006  RH  020%=      5-min Rain = 0
KNH1 102041Z 24029KT 24/M01 A2958 RMK A01 T02351006  RH  020%=      5-min Rain = 0
KNH1 102042Z 24026KT 23/M00 A2958 RMK A01 T02341004  RH  021%=      5-min Rain = 0
KNH1 102043Z 24025G31KT 23/M00 A2959 RMK A01 T02331004  RH  021%=      5-min Rain = 0
KNH1 102044Z 25025KT 23/M01 A2959 RMK A01 T02321005  RH  021%=      5-min Rain = 0
KNH1 102045Z 25029G37KT 23/M00 A2958 RMK A01 T02321004  RH  021%=      5-min Rain = 0
KNH1 102046Z 24027KT 23/M00 A2958 RMK A01 T02321003  RH  021%=      5-min Rain = 0
KNH1 102047Z 24027KT 23/M00 A2958 RMK A01 T02331003  RH  021%=      5-min Rain = 0
KNH1 102048Z 25024KT 23/M00 A2958 RMK A01 T02331003  RH  021%=      5-min Rain = 0
KNH1 102049Z 24026G34KT 23/M00 A2958 RMK A01 T02331003  RH  021%=      5-min Rain = 0
KNH1 102050Z 24027KT 23/M01 A2958 RMK A01 T02331005  RH  021%=      5-min Rain = 0
KNH1 102051Z 24023G28KT 23/M00 A2958 RMK A01 T02341004  RH  021%=      5-min Rain = 0
KNH1 102052Z 24021G26KT 24/M01 A2958 RMK A01 T02351005  RH  020%=      5-min Rain = 0
KNH1 102053Z 24021KT 24/M01 A2958 RMK A01 T02361006  RH  020%=      5-min Rain = 0
KNH1 102054Z 24024KT 24/M01 A2958 RMK A01 T02371006  RH  020%=      5-min Rain = 0
KNH1 102055Z 25027KT 24/M01 A2958 RMK A01 T02371008  RH  020%=      5-min Rain = 0
KNH1 102056Z 25024G29KT 24/M01 A2958 RMK A01 T02351007  RH  020%=      5-min Rain = 0
KNH1 102057Z 25019KT 23/M01 A2958 RMK A01 T02341007  RH  020%=      5-min Rain = 0
KNH1 102058Z 25023G29KT 23/M01 A2958 RMK A01 T02341007  RH  020%=      5-min Rain = 0
KNH1 102059Z 26022G27KT 24/M01 A2958 RMK A01 T02351009  RH  020%=      5-min Rain = 0
KNH1 102100Z 25028KT 24/M01 A2958 RMK A01 T02351013  RH  019%=      5-min Rain = 0
KNH1 102101Z 25029G34KT 23/M01 A2958 RMK A01 T02341012  RH  019%=      5-min Rain = 0
KNH1 102102Z 25027KT 23/M01 A2958 RMK A01 T02311013  RH  020%=      5-min Rain = 0
KNH1 102103Z 25028G33KT 23/M01 A2958 RMK A01 T02301012  RH  020%=      5-min Rain = 0
KNH1 102104Z 25027KT 23/M01 A2958 RMK A01 T02301011  RH  020%=      5-min Rain = 0
KNH1 102105Z 26029KT 23/M01 A2958 RMK A01 T02301010  RH  020%=      5-min Rain = 0
KNH1 102106Z 25027G32KT 23/M01 A2958 RMK A01 T02291010  RH  020%=      5-min Rain = 0
KNH1 102107Z 25031KT 23/M01 A2958 RMK A01 T02301010  RH  020%=      5-min Rain = 0
KNH1 102108Z 25025KT 23/M01 A2958 RMK A01 T02301011  RH  020%=      5-min Rain = 0
KNH1 102109Z 26029KT 23/M01 A2958 RMK A01 T02301012  RH  020%=      5-min Rain = 0
KNH1 102110Z 25027G33KT 23/M01 A2958 RMK A01 T02291013  RH  020%=      5-min Rain = 0
KNH1 102111Z 24030KT 23/M01 A2958 RMK A01 T02291013  RH  020%=      5-min Rain = 0
KNH1 102112Z 25027G33KT 23/M01 A2958 RMK A01 T02281013  RH  020%=      5-min Rain = 0
KNH1 102113Z 24025KT 23/M01 A2958 RMK A01 T02281010  RH  020%=      5-min Rain = 0
KNH1 102114Z 24024KT 23/M01 A2958 RMK A01 T02291009  RH  021%=      5-min Rain = 0
KNH1 102115Z 25028G35KT 23/M01 A2958 RMK A01 T02291008  RH  021%=      5-min Rain = 0
KNH1 102116Z 25027G34KT 23/M01 A2958 RMK A01 T02301009  RH  020%=      5-min Rain = 0
KNH1 102117Z 25025G30KT 23/M01 A2958 RMK A01 T02291013  RH  020%=      5-min Rain = 0
KNH1 102118Z 25026G31KT 23/M01 A2958 RMK A01 T02281013  RH  020%=      5-min Rain = 0
KNH1 102119Z 25025G33KT 23/M01 A2958 RMK A01 T02281013  RH  020%=      5-min Rain = 0
KNH1 102120Z 24027KT 23/M02 A2958 RMK A01 T02281016  RH  020%=      5-min Rain = 0
KNH1 102121Z 23026G31KT 23/M02 A2958 RMK A01 T02281017  RH  019%=      5-min Rain = 0
KNH1 102122Z 24025G30KT 23/M02 A2958 RMK A01 T02281018  RH  019%=      5-min Rain = 0
KNH1 102123Z 25023G29KT 23/M02 A2958 RMK A01 T02281018  RH  019%=      5-min Rain = 0
KNH1 102124Z 24025G31KT 23/M02 A2958 RMK A01 T02281018  RH  019%=      5-min Rain = 0
KNH1 102125Z 24024G29KT 23/M02 A2958 RMK A01 T02281018  RH  019%=      5-min Rain = 0
KNH1 102126Z 25030KT 23/M02 A2958 RMK A01 T02281015  RH  020%=      5-min Rain = 0
KNH1 102127Z 25027KT 23/M01 A2958 RMK A01 T02271012  RH  020%=      5-min Rain = 0
KNH1 102128Z 25025KT 23/M01 A2958 RMK A01 T02251010  RH  021%=      5-min Rain = 0
KNH1 102129Z 24025KT 22/M01 A2958 RMK A01 T02231010  RH  021%=      5-min Rain = 0
KNH1 102130Z 25024G29KT 22/M01 A2958 RMK A01 T02231009  RH  021%=      5-min Rain = 0
KNH1 102131Z 25025G32KT 22/M01 A2958 RMK A01 T02221008  RH  021%=      5-min Rain = 0
KNH1 102132Z 26028G34KT 22/M01 A2958 RMK A01 T02201008  RH  022%=      5-min Rain = 0
KNH1 102133Z 25026G31KT 22/M01 A2958 RMK A01 T02161008  RH  022%=      5-min Rain = 0
KNH1 102134Z 25024KT 22/M01 A2958 RMK A01 T02151008  RH  022%=      5-min Rain = 0
KNH1 102135Z 25025G30KT 21/M01 A2958 RMK A01 T02141008  RH  023%=      5-min Rain = 0
KNH1 102136Z 26029KT 21/M01 A2958 RMK A01 T02141008  RH  023%=      5-min Rain = 0
KNH1 102137Z 26027G33KT 21/M01 A2958 RMK A01 T02131008  RH  023%=      5-min Rain = 0
KNH1 102138Z 25024G30KT 21/M01 A2958 RMK A01 T02131008  RH  023%=      5-min Rain = 0
KNH1 102139Z 26025G30KT 21/M01 A2958 RMK A01 T02131008  RH  023%=      5-min Rain = 0
KNH1 102140Z 25024KT 21/M01 A2958 RMK A01 T02131007  RH  023%=      5-min Rain = 0
KNH1 102141Z 25024KT 21/M01 A2959 RMK A01 T02121008  RH  023%=      5-min Rain = 0
KNH1 102142Z 25024KT 21/M01 A2959 RMK A01 T02121007  RH  023%=      5-min Rain = 0
KNH1 102143Z 25023G28KT 21/M01 A2959 RMK A01 T02121007  RH  023%=      5-min Rain = 0
KNH1 102144Z 25022KT 21/M01 A2959 RMK A01 T02121008  RH  023%=      5-min Rain = 0
KNH1 102145Z 25024KT 21/M01 A2959 RMK A01 T02121008  RH  023%=      5-min Rain = 0
KNH1 102146Z 25025KT 21/M01 A2959 RMK A01 T02121010  RH  023%=      5-min Rain = 0
KNH1 102147Z 25025KT 21/M01 A2959 RMK A01 T02121011  RH  022%=      5-min Rain = 0
KNH1 102148Z 24024G29KT 21/M01 A2958 RMK A01 T02121012  RH  022%=      5-min Rain = 0
KNH1 102149Z 25020KT 21/M01 A2958 RMK A01 T02121013  RH  022%=      5-min Rain = 0
KNH1 102150Z 25021G26KT 21/M01 A2958 RMK A01 T02131013  RH  022%=      5-min Rain = 0
KNH1 102151Z 25022G28KT 21/M01 A2958 RMK A01 T02121014  RH  022%=      5-min Rain = 0
KNH1 102152Z 25026KT 21/M01 A2958 RMK A01 T02131014  RH  022%=      5-min Rain = 0
KNH1 102153Z 25026KT 21/M02 A2958 RMK A01 T02121015  RH  022%=      5-min Rain = 0
KNH1 102154Z 26023G29KT 21/M02 A2958 RMK A01 T02121016  RH  022%=      5-min Rain = 0
KNH1 102155Z 26023KT 21/M02 A2958 RMK A01 T02121015  RH  022%=      5-min Rain = 0
KNH1 102156Z 25019KT 21/M02 A2958 RMK A01 T02121015  RH  022%=      5-min Rain = 0
KNH1 102157Z 26019KT 21/M02 A2958 RMK A01 T02121015  RH  022%=      5-min Rain = 0
KNH1 102158Z 26019KT 21/M02 A2958 RMK A01 T02131015  RH  022%=      5-min Rain = 0
KNH1 102159Z 25023KT 21/M01 A2958 RMK A01 T02131014  RH  022%=      5-min Rain = 0
KNH1 102200Z 25023KT 21/M01 A2958 RMK A01 T02131013  RH  022%=      5-min Rain = 0
KNH1 102201Z 25021KT 21/M01 A2958 RMK A01 T02131013  RH  022%=      5-min Rain = 0
KNH1 102202Z 25024KT 21/M01 A2958 RMK A01 T02121012  RH  022%=      5-min Rain = 0
KNH1 102203Z 24020KT 21/M01 A2959 RMK A01 T02121013  RH  022%=      5-min Rain = 0
KNH1 102204Z 24022G30KT 21/M01 A2958 RMK A01 T02121012  RH  022%=      5-min Rain = 0
KNH1 102205Z 26023KT 21/M01 A2959 RMK A01 T02111012  RH  022%=      5-min Rain = 0
KNH1 102206Z 26024G30KT 21/M01 A2959 RMK A01 T02101005  RH  024%=      5-min Rain = 0
KNH1 102207Z 27025KT 21/M00 A2959 RMK A01 T02071002  RH  025%=      5-min Rain = 0
KNH1 102208Z 27020KT 21/00 A2959 RMK A01 T020500-0  RH  025%=      5-min Rain = 0
KNH1 102209Z 27018G29KT 20/00 A2959 RMK A01 T020400-0  RH  025%=      5-min Rain = 0
KNH1 102210Z 27023KT 20/00 A2959 RMK A01 T020400-0  RH  025%=      5-min Rain = 0
KNH1 102211Z 27019G25KT 20/00 A2959 RMK A01 T020300-0  RH  026%=      5-min Rain = 0
KNH1 102212Z 27020G26KT 20/00 A2959 RMK A01 T02020001  RH  026%=      5-min Rain = 0
KNH1 102213Z 27026KT 20/00 A2959 RMK A01 T02020001  RH  026%=      5-min Rain = 0
KNH1 102214Z 28024KT 20/00 A296 RMK A01 T02010003  RH  027%=      5-min Rain = 0
KNH1 102215Z 29027G34KT 20/01 A296 RMK A01 T01960013  RH  029%=      5-min Rain = 0
KNH1 102216Z 29033G40KT 19/02 A296 RMK A01 T01890018  RH  032%=      5-min Rain = 0
KNH1 102217Z 28028G37KT 18/02 A2961 RMK A01 T01840020  RH  033%=      5-min Rain = 0
KNH1 102218Z 29031KT 18/02 A296 RMK A01 T01810021  RH  034%=      5-min Rain = 0
KNH1 102219Z 29027KT 18/02 A2961 RMK A01 T01800021  RH  035%=      5-min Rain = 0
KNH1 102220Z 28027G35KT 18/02 A2961 RMK A01 T01790023  RH  035%=      5-min Rain = 0
KNH1 102221Z 28023G28KT 18/02 A2961 RMK A01 T01780023  RH  035%=      5-min Rain = 0
KNH1 102222Z 29027KT 18/02 A2961 RMK A01 T01780024  RH  036%=      5-min Rain = 0
KNH1 102223Z 29026G35KT 18/03 A2961 RMK A01 T01780025  RH  036%=      5-min Rain = 0
KNH1 102224Z 28024G29KT 18/02 A2961 RMK A01 T01780024  RH  036%=      5-min Rain = 0
KNH1 102225Z 28026G32KT 18/02 A2961 RMK A01 T01780024  RH  036%=      5-min Rain = 0
KNH1 102226Z 28025G35KT 18/03 A2961 RMK A01 T01790025  RH  036%=      5-min Rain = 0
KNH1 102227Z 28024G31KT 18/03 A2961 RMK A01 T01790025  RH  036%=      5-min Rain = 0
KNH1 102228Z 29025G30KT 18/03 A2961 RMK A01 T01790025  RH  036%=      5-min Rain = 0
KNH1 102229Z 28022G27KT 18/03 A2961 RMK A01 T01790025  RH  036%=      5-min Rain = 0
KNH1 102230Z 28028G34KT 18/03 A2961 RMK A01 T01790025  RH  036%=      5-min Rain = 0
KNH1 102231Z 28026G33KT 18/03 A2961 RMK A01 T01770025  RH  036%=      5-min Rain = 0
KNH1 102232Z 28024KT 18/03 A2961 RMK A01 T01760025  RH  036%=      5-min Rain = 0
KNH1 102233Z 29021KT 18/03 A2961 RMK A01 T01760025  RH  036%=      5-min Rain = 0
KNH1 102234Z 29023G28KT 18/03 A2961 RMK A01 T01760025  RH  036%=      5-min Rain = 0
KNH1 102235Z 29026G34KT 18/03 A2961 RMK A01 T01750025  RH  037%=      5-min Rain = 0
KNH1 102236Z 28029G35KT 17/03 A2961 RMK A01 T01730025  RH  037%=      5-min Rain = 0
KNH1 102237Z 28027G33KT 17/02 A2961 RMK A01 T01710024  RH  037%=      5-min Rain = 0
KNH1 102238Z 28024G30KT 17/02 A2962 RMK A01 T01700024  RH  037%=      5-min Rain = 0
KNH1 102239Z 28025G30KT 17/02 A2962 RMK A01 T01700024  RH  037%=      5-min Rain = 0
KNH1 102240Z 28026G31KT 17/02 A2962 RMK A01 T01700023  RH  037%=      5-min Rain = 0
KNH1 102241Z 28025G32KT 17/02 A2962 RMK A01 T01690023  RH  037%=      5-min Rain = 0
KNH1 102242Z 28022KT 17/02 A2962 RMK A01 T01690023  RH  038%=      5-min Rain = 0
KNH1 102243Z 28023G28KT 17/02 A2962 RMK A01 T01690023  RH  038%=      5-min Rain = 0
KNH1 102244Z 28021G26KT 17/02 A2962 RMK A01 T01690023  RH  038%=      5-min Rain = 0
KNH1 102245Z 28022G27KT 17/02 A2962 RMK A01 T01680023  RH  038%=      5-min Rain = 0
KNH1 102246Z 28020G26KT 17/02 A2962 RMK A01 T01680022  RH  038%=      5-min Rain = 0
KNH1 102247Z 29018KT 17/02 A2962 RMK A01 T01670022  RH  038%=      5-min Rain = 0
KNH1 102248Z 28018KT 17/02 A2962 RMK A01 T01660022  RH  038%=      5-min Rain = 0
KNH1 102249Z 28020G28KT 17/02 A2962 RMK A01 T01650021  RH  038%=      5-min Rain = 0
KNH1 102250Z 28027KT 16/02 A2962 RMK A01 T01640022  RH  038%=      5-min Rain = 0
KNH1 102251Z 28026KT 16/02 A2961 RMK A01 T01630022  RH  039%=      5-min Rain = 0
KNH1 102252Z 29028KT 16/02 A2961 RMK A01 T01610022  RH  039%=      5-min Rain = 0
KNH1 102253Z 28025G31KT 16/02 A2961 RMK A01 T01600022  RH  039%=      5-min Rain = 0
KNH1 102254Z 29026KT 16/02 A2961 RMK A01 T01590023  RH  040%=      5-min Rain = 0
KNH1 102255Z 29025G31KT 16/02 A2961 RMK A01 T01590023  RH  040%=      5-min Rain = 0
KNH1 102256Z 28025KT 16/02 A2962 RMK A01 T01570023  RH  040%=      5-min Rain = 0
KNH1 102257Z 28022G27KT 16/02 A2962 RMK A01 T01570024  RH  041%=      5-min Rain = 0
KNH1 102258Z 28023KT 16/02 A2962 RMK A01 T01560024  RH  041%=      5-min Rain = 0
KNH1 102259Z 28023KT 16/02 A2962 RMK A01 T01560024  RH  041%=      5-min Rain = 0
KNH1 102300Z 28024KT 16/02 A2962 RMK A01 T01560024  RH  041%=      5-min Rain = 0
KNH1 102301Z 28024G29KT 16/02 A2962 RMK A01 T01560024  RH  041%=      5-min Rain = 0
KNH1 102302Z 28022KT 16/02 A2962 RMK A01 T01550024  RH  041%=      5-min Rain = 0
KNH1 102303Z 28023KT 16/02 A2962 RMK A01 T01550024  RH  041%=      5-min Rain = 0
KNH1 102304Z 29023KT 15/02 A2962 RMK A01 T01540023  RH  041%=      5-min Rain = 0
KNH1 102305Z 28020KT 16/02 A2962 RMK A01 T01550024  RH  041%=      5-min Rain = 0
KNH1 102306Z 29018KT 16/02 A2962 RMK A01 T01550024  RH  041%=      5-min Rain = 0
KNH1 102307Z 28021KT 16/02 A2962 RMK A01 T01550023  RH  041%=      5-min Rain = 0
KNH1 102308Z 28021G27KT 16/02 A2963 RMK A01 T01550023  RH  041%=      5-min Rain = 0
KNH1 102309Z 28023KT 16/02 A2963 RMK A01 T01550023  RH  041%=      5-min Rain = 0
KNH1 102310Z 28023G28KT 16/02 A2962 RMK A01 T01560024  RH  041%=      5-min Rain = 0
KNH1 102311Z 28021KT 16/03 A2963 RMK A01 T01560025  RH  041%=      5-min Rain = 0
KNH1 102312Z 28020KT 16/03 A2962 RMK A01 T01560026  RH  042%=      5-min Rain = 0
KNH1 102313Z 28025G30KT 16/03 A2962 RMK A01 T01550026  RH  042%=      5-min Rain = 0
KNH1 102314Z 28020G27KT 15/03 A2962 RMK A01 T01540027  RH  042%=      5-min Rain = 0
KNH1 102315Z 28024KT 15/03 A2962 RMK A01 T01530027  RH  043%=      5-min Rain = 0
KNH1 102316Z 29021KT 15/03 A2962 RMK A01 T01530028  RH  043%=      5-min Rain = 0
KNH1 102317Z 28021G26KT 15/03 A2962 RMK A01 T01520029  RH  043%=      5-min Rain = 0
KNH1 102318Z 29020G28KT 15/03 A2962 RMK A01 T01520029  RH  044%=      5-min Rain = 0
KNH1 102319Z 28025G31KT 15/03 A2962 RMK A01 T01510028  RH  044%=      5-min Rain = 0
KNH1 102320Z 28025G30KT 15/03 A2962 RMK A01 T01500028  RH  044%=      5-min Rain = 0
KNH1 102321Z 28024G29KT 15/03 A2962 RMK A01 T01500029  RH  044%=      5-min Rain = 0
KNH1 102322Z 28021KT 15/03 A2962 RMK A01 T01490029  RH  045%=      5-min Rain = 0
KNH1 102323Z 27020KT 15/03 A2962 RMK A01 T01480029  RH  045%=      5-min Rain = 0
KNH1 102324Z 28024G29KT 15/03 A2962 RMK A01 T01470029  RH  045%=      5-min Rain = 0
KNH1 102325Z 28020KT 15/03 A2962 RMK A01 T01470029  RH  045%=      5-min Rain = 0
KNH1 102326Z 28024KT 15/03 A2962 RMK A01 T01460028  RH  045%=      5-min Rain = 0
KNH1 102327Z 28027G32KT 15/03 A2962 RMK A01 T01450027  RH  045%=      5-min Rain = 0
KNH1 102328Z 28026KT 14/03 A2962 RMK A01 T01440027  RH  045%=      5-min Rain = 0
KNH1 102329Z 27021KT 14/03 A2963 RMK A01 T01440026  RH  045%=      5-min Rain = 0
KNH1 102330Z 27019G24KT 14/03 A2963 RMK A01 T01430026  RH  045%=      5-min Rain = 0
KNH1 102331Z 27024KT 14/03 A2963 RMK A01 T01420025  RH  045%=      5-min Rain = 0
KNH1 102332Z 28023G28KT 14/02 A2963 RMK A01 T01410024  RH  045%=      5-min Rain = 0
KNH1 102333Z 27018KT 14/02 A2963 RMK A01 T01410024  RH  045%=      5-min Rain = 0
KNH1 102334Z 27021KT 14/02 A2963 RMK A01 T01400023  RH  045%=      5-min Rain = 0
KNH1 102335Z 28022KT 14/02 A2963 RMK A01 T01400023  RH  045%=      5-min Rain = 0
KNH1 102336Z 27017G22KT 14/02 A2962 RMK A01 T01400022  RH  045%=      5-min Rain = 0
KNH1 102337Z 28018G24KT 14/02 A2962 RMK A01 T01390022  RH  045%=      5-min Rain = 0
KNH1 102338Z 28020KT 14/02 A2962 RMK A01 T01380021  RH  045%=      5-min Rain = 0
KNH1 102339Z 27017KT 14/02 A2962 RMK A01 T01380021  RH  045%=      5-min Rain = 0
KNH1 102340Z 27018KT 14/02 A2963 RMK A01 T01370020  RH  045%=      5-min Rain = 0
KNH1 102341Z 26019KT 14/02 A2963 RMK A01 T01370020  RH  045%=      5-min Rain = 0
KNH1 102342Z 27017G22KT 14/02 A2963 RMK A01 T01370020  RH  045%=      5-min Rain = 0
KNH1 102343Z 26022G27KT 14/02 A2963 RMK A01 T01370020  RH  045%=      5-min Rain = 0
KNH1 102344Z 26020KT 14/02 A2963 RMK A01 T01360020  RH  045%=      5-min Rain = 0
KNH1 102345Z 26022G28KT 14/02 A2963 RMK A01 T01360020  RH  045%=      5-min Rain = 0
KNH1 102346Z 27023KT 14/02 A2963 RMK A01 T01360021  RH  046%=      5-min Rain = 0
KNH1 102347Z 27024KT 14/02 A2963 RMK A01 T01360022  RH  046%=      5-min Rain = 0
KNH1 102348Z 26022KT 14/02 A2963 RMK A01 T01360021  RH  046%=      5-min Rain = 0
KNH1 102349Z 26020KT 14/02 A2963 RMK A01 T01360021  RH  046%=      5-min Rain = 0
KNH1 102350Z 25020KT 14/02 A2964 RMK A01 T01350021  RH  046%=      5-min Rain = 0
KNH1 102351Z 25021KT 14/02 A2964 RMK A01 T01350021  RH  046%=      5-min Rain = 0
KNH1 102352Z 26022KT 14/02 A2964 RMK A01 T01350022  RH  046%=      5-min Rain = 0
KNH1 102353Z 25020KT 14/02 A2964 RMK A01 T01350023  RH  047%=      5-min Rain = 0
KNH1 102354Z 25021KT 13/02 A2964 RMK A01 T01340023  RH  047%=      5-min Rain = 0
KNH1 102355Z 25020G25KT 13/02 A2963 RMK A01 T01340023  RH  047%=      5-min Rain = 0
KNH1 102356Z 26019G24KT 13/02 A2963 RMK A01 T01340023  RH  047%=      5-min Rain = 0
KNH1 102357Z 26025G31KT 13/02 A2963 RMK A01 T01330024  RH  048%=      5-min Rain = 0
KNH1 102358Z 25025G31KT 13/03 A2963 RMK A01 T01330026  RH  048%=      5-min Rain = 0
KNH1 102359Z 25024G29KT 13/03 A2963 RMK A01 T01340026  RH  048%=      5-min Rain = 0
KNH1 110000Z 25021KT 13/03 A2963 RMK A01 T01330026  RH  048%=      5-min Rain = 0
KNH1 110001Z 25021G26KT 13/03 A2963 RMK A01 T01330027  RH  048%=      5-min Rain = 0
KNH1 110002Z 25023KT 13/03 A2963 RMK A01 T01320026  RH  049%=      5-min Rain = 0
KNH1 110003Z 24026G32KT 13/03 A2963 RMK A01 T01320027  RH  049%=      5-min Rain = 0
KNH1 110004Z 25026KT 13/03 A2963 RMK A01 T01310026  RH  049%=      5-min Rain = 0
KNH1 110005Z 25022KT 13/03 A2963 RMK A01 T01310026  RH  049%=      5-min Rain = 0
KNH1 110006Z 24024G29KT 13/03 A2963 RMK A01 T01300027  RH  049%=      5-min Rain = 0
KNH1 110007Z 24021KT 13/03 A2964 RMK A01 T01300027  RH  050%=      5-min Rain = 0
KNH1 110008Z 24022KT 13/03 A2964 RMK A01 T01290028  RH  050%=      5-min Rain = 0
KNH1 110009Z 24022G27KT 13/03 A2964 RMK A01 T01290028  RH  050%=      5-min Rain = 0
KNH1 110010Z 24019KT 13/03 A2964 RMK A01 T01290028  RH  050%=      5-min Rain = 0
KNH1 110011Z 24020KT 13/03 A2964 RMK A01 T01280027  RH  050%=      5-min Rain = 0
KNH1 110012Z 24023KT 13/03 A2964 RMK A01 T01270026  RH  050%=      5-min Rain = 0
KNH1 110013Z 23023KT 13/03 A2964 RMK A01 T01270026  RH  050%=      5-min Rain = 0
KNH1 110014Z 23022KT 13/03 A2965 RMK A01 T01270026  RH  050%=      5-min Rain = 0
KNH1 110015Z 23020KT 13/03 A2965 RMK A01 T01270026  RH  050%=      5-min Rain = 0
KNH1 110016Z 22019KT 13/03 A2964 RMK A01 T01270027  RH  050%=      5-min Rain = 0
KNH1 110017Z 22018G23KT 13/03 A2964 RMK A01 T01260026  RH  051%=      5-min Rain = 0
KNH1 110018Z 23018KT 13/03 A2964 RMK A01 T01260025  RH  050%=      5-min Rain = 0
KNH1 110019Z 22020KT 13/02 A2964 RMK A01 T01260024  RH  050%=      5-min Rain = 0
KNH1 110020Z 23019KT 13/02 A2964 RMK A01 T01250022  RH  049%=      5-min Rain = 0
KNH1 110021Z 23020KT 13/02 A2964 RMK A01 T01250022  RH  049%=      5-min Rain = 0
KNH1 110022Z 22019KT 13/02 A2964 RMK A01 T01250021  RH  049%=      5-min Rain = 0
KNH1 110023Z 22019KT 13/02 A2964 RMK A01 T01250020  RH  049%=      5-min Rain = 0
KNH1 110024Z 22016KT 13/02 A2964 RMK A01 T01250019  RH  048%=      5-min Rain = 0
KNH1 110025Z 22017KT 12/02 A2964 RMK A01 T01240019  RH  049%=      5-min Rain = 0
KNH1 110026Z 23017KT 12/02 A2964 RMK A01 T01240018  RH  048%=      5-min Rain = 0
KNH1 110027Z 23017KT 12/02 A2964 RMK A01 T01240018  RH  048%=      5-min Rain = 0
KNH1 110028Z 23015KT 12/02 A2964 RMK A01 T01240018  RH  048%=      5-min Rain = 0
KNH1 110029Z 22017KT 12/02 A2964 RMK A01 T01230017  RH  048%=      5-min Rain = 0
KNH1 110030Z 23019KT 12/02 A2964 RMK A01 T01240016  RH  048%=      5-min Rain = 0
KNH1 110031Z 23017G22KT 12/02 A2964 RMK A01 T01230015  RH  047%=      5-min Rain = 0
KNH1 110032Z 23019KT 12/01 A2964 RMK A01 T01230014  RH  047%=      5-min Rain = 0
KNH1 110033Z 23019KT 12/01 A2964 RMK A01 T01230013  RH  047%=      5-min Rain = 0
KNH1 110034Z 23018KT 12/01 A2964 RMK A01 T01220012  RH  047%=      5-min Rain = 0
KNH1 110035Z 23016KT 12/01 A2964 RMK A01 T01220012  RH  047%=      5-min Rain = 0
KNH1 110036Z 22016KT 12/01 A2964 RMK A01 T01220012  RH  047%=      5-min Rain = 0
KNH1 110037Z 22016KT 12/01 A2964 RMK A01 T01210012  RH  047%=      5-min Rain = 0
KNH1 110038Z 22018KT 12/01 A2964 RMK A01 T01210011  RH  047%=      5-min Rain = 0
KNH1 110039Z 22016G21KT 12/01 A2964 RMK A01 T01220011  RH  047%=      5-min Rain = 0
KNH1 110040Z 22017KT 12/01 A2964 RMK A01 T01220011  RH  047%=      5-min Rain = 0
KNH1 110041Z 22019KT 12/01 A2964 RMK A01 T01220011  RH  047%=      5-min Rain = 0
KNH1 110042Z 22016KT 12/01 A2964 RMK A01 T01220011  RH  047%=      5-min Rain = 0
KNH1 110043Z 22015KT 12/01 A2964 RMK A01 T01220010  RH  046%=      5-min Rain = 0
KNH1 110044Z 22016KT 12/01 A2964 RMK A01 T01220011  RH  046%=      5-min Rain = 0
KNH1 110045Z 22017G22KT 12/01 A2964 RMK A01 T01220010  RH  046%=      5-min Rain = 0
KNH1 110046Z 22017KT 12/01 A2964 RMK A01 T01220010  RH  046%=      5-min Rain = 0
KNH1 110047Z 22017KT 12/01 A2965 RMK A01 T01220010  RH  046%=      5-min Rain = 0
KNH1 110048Z 23017KT 12/01 A2965 RMK A01 T01220010  RH  046%=      5-min Rain = 0
KNH1 110049Z 24018KT 12/01 A2965 RMK A01 T01220010  RH  046%=      5-min Rain = 0
KNH1 110050Z 23017KT 12/01 A2965 RMK A01 T01220010  RH  046%=      5-min Rain = 0
KNH1 110051Z 24017G23KT 12/01 A2964 RMK A01 T01220009  RH  046%=      5-min Rain = 0
KNH1 110052Z 23020KT 12/01 A2964 RMK A01 T01210010  RH  046%=      5-min Rain = 0
KNH1 110053Z 23019KT 12/01 A2965 RMK A01 T01210009  RH  046%=      5-min Rain = 0
KNH1 110054Z 24016KT 12/01 A2965 RMK A01 T01210009  RH  046%=      5-min Rain = 0
KNH1 110055Z 24017G22KT 12/01 A2964 RMK A01 T01210009  RH  046%=      5-min Rain = 0
KNH1 110056Z 24019KT 12/01 A2964 RMK A01 T01210008  RH  046%=      5-min Rain = 0
KNH1 110057Z 23018KT 12/01 A2964 RMK A01 T01210007  RH  046%=      5-min Rain = 0
KNH1 110058Z 24019KT 12/01 A2963 RMK A01 T01200006  RH  046%=      5-min Rain = 0
KNH1 110059Z 24019G24KT 12/01 A2963 RMK A01 T01210006  RH  045%=      5-min Rain = 0
KNH1 110100Z 24020KT 12/01 A2963 RMK A01 T01210006  RH  045%=      5-min Rain = 0
KNH1 110101Z 25019KT 12/01 A2963 RMK A01 T01210006  RH  045%=      5-min Rain = 0
KNH1 110102Z 25018KT 12/01 A2963 RMK A01 T01210006  RH  045%=      5-min Rain = 0
KNH1 110103Z 25018KT 12/01 A2963 RMK A01 T01200005  RH  045%=      5-min Rain = 0
KNH1 110104Z 25020KT 12/01 A2963 RMK A01 T01200005  RH  045%=      5-min Rain = 0
KNH1 110105Z 25021KT 12/00 A2963 RMK A01 T01200004  RH  045%=      5-min Rain = 0
KNH1 110106Z 25020KT 12/00 A2963 RMK A01 T01200004  RH  045%=      5-min Rain = 0
KNH1 110107Z 25018KT 12/00 A2963 RMK A01 T01190004  RH  045%=      5-min Rain = 0
KNH1 110108Z 25018G23KT 12/01 A2963 RMK A01 T01190005  RH  045%=      5-min Rain = 0
KNH1 110109Z 25019KT 12/00 A2963 RMK A01 T01180004  RH  045%=      5-min Rain = 0
KNH1 110110Z 25023G28KT 12/01 A2963 RMK A01 T01190005  RH  046%=      5-min Rain = 0
KNH1 110111Z 25023G31KT 12/01 A2963 RMK A01 T01180005  RH  046%=      5-min Rain = 0
KNH1 110112Z 25020KT 12/01 A2963 RMK A01 T01180005  RH  046%=      5-min Rain = 0
KNH1 110113Z 25017KT 12/00 A2963 RMK A01 T01170003  RH  045%=      5-min Rain = 0
KNH1 110114Z 25019KT 12/00 A2963 RMK A01 T01170004  RH  046%=      5-min Rain = 0
KNH1 110115Z 25019KT 12/00 A2963 RMK A01 T01160004  RH  046%=      5-min Rain = 0
KNH1 110116Z 25023KT 12/01 A2963 RMK A01 T01160005  RH  046%=      5-min Rain = 0
KNH1 110117Z 25020KT 12/01 A2963 RMK A01 T01150005  RH  047%=      5-min Rain = 0
KNH1 110118Z 25021KT 12/01 A2963 RMK A01 T01150005  RH  047%=      5-min Rain = 0
KNH1 110119Z 25020KT 12/01 A2963 RMK A01 T01150006  RH  047%=      5-min Rain = 0
KNH1 110120Z 25020KT 11/01 A2963 RMK A01 T01140006  RH  047%=      5-min Rain = 0
KNH1 110121Z 25018G23KT 11/01 A2963 RMK A01 T01140006  RH  047%=      5-min Rain = 0
KNH1 110122Z 24018KT 11/01 A2963 RMK A01 T01130006  RH  048%=      5-min Rain = 0
KNH1 110123Z 25018KT 11/01 A2963 RMK A01 T01120005  RH  048%=      5-min Rain = 0
KNH1 110124Z 25018KT 11/01 A2963 RMK A01 T01110006  RH  048%=      5-min Rain = 0
KNH1 110125Z 24017G22KT 11/01 A2963 RMK A01 T01110006  RH  048%=      5-min Rain = 0
KNH1 110126Z 24019KT 11/01 A2963 RMK A01 T01110006  RH  049%=      5-min Rain = 0
KNH1 110127Z 24017KT 11/01 A2963 RMK A01 T01110007  RH  049%=      5-min Rain = 0
KNH1 110128Z 24019KT 11/01 A2964 RMK A01 T01100006  RH  049%=      5-min Rain = 0
KNH1 110129Z 24017KT 11/01 A2964 RMK A01 T01100007  RH  049%=      5-min Rain = 0
KNH1 110130Z 24016KT 11/01 A2964 RMK A01 T01090006  RH  049%=      5-min Rain = 0
KNH1 110131Z 24018KT 11/01 A2964 RMK A01 T01090007  RH  049%=      5-min Rain = 0
KNH1 110132Z 25016KT 11/01 A2964 RMK A01 T01090007  RH  049%=      5-min Rain = 0
KNH1 110133Z 24017KT 11/01 A2963 RMK A01 T01090007  RH  049%=      5-min Rain = 0
KNH1 110134Z 25016KT 11/01 A2963 RMK A01 T01090007  RH  049%=      5-min Rain = 0
KNH1 110135Z 25015KT 11/01 A2963 RMK A01 T01080007  RH  050%=      5-min Rain = 0
KNH1 110136Z 25016KT 11/01 A2963 RMK A01 T01070007  RH  050%=      5-min Rain = 0
KNH1 110137Z 25015G20KT 11/01 A2963 RMK A01 T01070008  RH  050%=      5-min Rain = 0
KNH1 110138Z 25016KT 11/01 A2963 RMK A01 T01070008  RH  050%=      5-min Rain = 0
KNH1 110139Z 25016KT 11/01 A2963 RMK A01 T01060008  RH  051%=      5-min Rain = 0
KNH1 110140Z 25017KT 11/01 A2963 RMK A01 T01060009  RH  051%=      5-min Rain = 0
KNH1 110141Z 25015G20KT 11/01 A2963 RMK A01 T01060009  RH  051%=      5-min Rain = 0
KNH1 110142Z 25016KT 11/01 A2963 RMK A01 T01060009  RH  051%=      5-min Rain = 0
KNH1 110143Z 25013KT 11/01 A2964 RMK A01 T01050009  RH  051%=      5-min Rain = 0
KNH1 110144Z 25014KT 10/01 A2963 RMK A01 T01040008  RH  051%=      5-min Rain = 0
KNH1 110145Z 25016KT 10/01 A2964 RMK A01 T01040009  RH  052%=      5-min Rain = 0
KNH1 110146Z 25016KT 10/01 A2963 RMK A01 T01040009  RH  052%=      5-min Rain = 0
KNH1 110147Z 25015KT 10/01 A2963 RMK A01 T01040009  RH  052%=      5-min Rain = 0
KNH1 110148Z 25015KT 10/01 A2963 RMK A01 T01040010  RH  052%=      5-min Rain = 0
KNH1 110149Z 25013KT 10/01 A2964 RMK A01 T01030009  RH  052%=      5-min Rain = 0
KNH1 110150Z 25015KT 10/01 A2963 RMK A01 T01020009  RH  052%=      5-min Rain = 0
KNH1 110151Z 25014KT 10/01 A2963 RMK A01 T01030010  RH  053%=      5-min Rain = 0
KNH1 110152Z 25013KT 10/01 A2963 RMK A01 T01020010  RH  053%=      5-min Rain = 0
KNH1 110153Z 24014KT 10/01 A2964 RMK A01 T01010009  RH  053%=      5-min Rain = 0
KNH1 110154Z 24014KT 10/01 A2964 RMK A01 T01000009  RH  053%=      5-min Rain = 0
KNH1 110155Z 24015KT 10/01 A2964 RMK A01 T01000009  RH  053%=      5-min Rain = 0
KNH1 110156Z 24013KT 10/01 A2964 RMK A01 T01000009  RH  053%=      5-min Rain = 0
KNH1 110157Z 24013KT 10/01 A2964 RMK A01 T01000009  RH  053%=      5-min Rain = 0
KNH1 110158Z 24014KT 10/01 A2964 RMK A01 T00990009  RH  053%=      5-min Rain = 0
KNH1 110159Z 24013KT 10/01 A2963 RMK A01 T00990009  RH  054%=      5-min Rain = 0
KNH1 110200Z 24013KT 10/01 A2963 RMK A01 T00980009  RH  054%=      5-min Rain = 0
KNH1 110201Z 24013KT 10/01 A2964 RMK A01 T00980009  RH  054%=      5-min Rain = 0
KNH1 110202Z 24014KT 10/01 A2964 RMK A01 T00970009  RH  054%=      5-min Rain = 0
KNH1 110203Z 24015KT 10/01 A2963 RMK A01 T00970010  RH  054%=      5-min Rain = 0
KNH1 110204Z 23014KT 10/01 A2963 RMK A01 T00970010  RH  055%=      5-min Rain = 0
KNH1 110205Z 24012KT 10/01 A2963 RMK A01 T00970010  RH  055%=      5-min Rain = 0
KNH1 110206Z 24015KT 10/01 A2963 RMK A01 T00970011  RH  055%=      5-min Rain = 0
KNH1 110207Z 24014KT 10/01 A2963 RMK A01 T00960011  RH  055%=      5-min Rain = 0
KNH1 110208Z 24014KT 10/01 A2963 RMK A01 T00960012  RH  055%=      5-min Rain = 0
KNH1 110209Z 23014KT 10/01 A2963 RMK A01 T00960012  RH  056%=      5-min Rain = 0
KNH1 110210Z 23014KT 10/01 A2963 RMK A01 T00960012  RH  056%=      5-min Rain = 0
KNH1 110211Z 23013KT 10/01 A2963 RMK A01 T00960012  RH  055%=      5-min Rain = 0
KNH1 110212Z 23014KT 10/01 A2963 RMK A01 T00950010  RH  055%=      5-min Rain = 0
KNH1 110213Z 23014KT 10/01 A2963 RMK A01 T00950011  RH  056%=      5-min Rain = 0
KNH1 110214Z 23015KT 09/01 A2963 RMK A01 T00940011  RH  056%=      5-min Rain = 0
KNH1 110215Z 23014KT 09/01 A2963 RMK A01 T00940011  RH  056%=      5-min Rain = 0
KNH1 110216Z 23015KT 09/01 A2963 RMK A01 T00930012  RH  057%=      5-min Rain = 0
KNH1 110217Z 23014KT 09/01 A2963 RMK A01 T00930012  RH  057%=      5-min Rain = 0
KNH1 110218Z 23013KT 09/01 A2963 RMK A01 T00930012  RH  057%=      5-min Rain = 0
KNH1 110219Z 23014KT 09/01 A2963 RMK A01 T00920012  RH  057%=      5-min Rain = 0
KNH1 110220Z 23015KT 09/01 A2963 RMK A01 T00920013  RH  058%=      5-min Rain = 0
KNH1 110221Z 23015KT 09/01 A2963 RMK A01 T00910013  RH  058%=      5-min Rain = 0
KNH1 110222Z 23015KT 09/01 A2964 RMK A01 T00910013  RH  058%=      5-min Rain = 0
KNH1 110223Z 23014KT 09/01 A2964 RMK A01 T00910012  RH  058%=      5-min Rain = 0
KNH1 110224Z 23015KT 09/01 A2964 RMK A01 T00900012  RH  058%=      5-min Rain = 0
KNH1 110225Z 23016KT 09/01 A2964 RMK A01 T00890013  RH  059%=      5-min Rain = 0
KNH1 110226Z 23016KT 09/01 A2964 RMK A01 T00900014  RH  059%=      5-min Rain = 0
KNH1 110227Z 23016KT 09/01 A2964 RMK A01 T00900014  RH  059%=      5-min Rain = 0
KNH1 110228Z 23016KT 09/01 A2964 RMK A01 T00890014  RH  059%=      5-min Rain = 0
KNH1 110229Z 23017KT 09/02 A2964 RMK A01 T00900015  RH  059%=      5-min Rain = 0
KNH1 110230Z 23016KT 09/02 A2964 RMK A01 T00900015  RH  059%=      5-min Rain = 0
KNH1 110231Z 23019KT 09/02 A2964 RMK A01 T00900016  RH  060%=      5-min Rain = 0
KNH1 110232Z 24019KT 09/02 A2964 RMK A01 T00910017  RH  060%=      5-min Rain = 0
KNH1 110233Z 24017KT 09/02 A2964 RMK A01 T00920017  RH  059%=      5-min Rain = 0
KNH1 110234Z 24015KT 09/02 A2964 RMK A01 T00920016  RH  059%=      5-min Rain = 0
KNH1 110235Z 24017KT 09/02 A2964 RMK A01 T00910016  RH  059%=      5-min Rain = 0
KNH1 110236Z 24015KT 09/02 A2964 RMK A01 T00900016  RH  060%=      5-min Rain = 0
KNH1 110237Z 24016KT 09/02 A2964 RMK A01 T00900016  RH  060%=      5-min Rain = 0
KNH1 110238Z 24016KT 09/02 A2964 RMK A01 T00900017  RH  060%=      5-min Rain = 0
KNH1 110239Z 24018KT 09/02 A2964 RMK A01 T00900017  RH  060%=      5-min Rain = 0
KNH1 110240Z 24015KT 09/02 A2964 RMK A01 T00900017  RH  060%=      5-min Rain = 0
KNH1 110241Z 24017KT 09/02 A2964 RMK A01 T00900017  RH  060%=      5-min Rain = 0
KNH1 110242Z 24015KT 09/02 A2963 RMK A01 T00900018  RH  061%=      5-min Rain = 0
KNH1 110243Z 24015KT 09/02 A2963 RMK A01 T00890017  RH  061%=      5-min Rain = 0
KNH1 110244Z 24014KT 09/02 A2963 RMK A01 T00890017  RH  061%=      5-min Rain = 0
KNH1 110245Z 24014KT 09/02 A2963 RMK A01 T00880017  RH  061%=      5-min Rain = 0
KNH1 110246Z 24013KT 09/02 A2963 RMK A01 T00880017  RH  061%=      5-min Rain = 0
KNH1 110247Z 24014KT 09/02 A2963 RMK A01 T00870017  RH  062%=      5-min Rain = 0
KNH1 110248Z 24012KT 09/02 A2963 RMK A01 T00870017  RH  062%=      5-min Rain = 0
KNH1 110249Z 24013KT 09/02 A2963 RMK A01 T00860017  RH  062%=      5-min Rain = 0
KNH1 110250Z 24013KT 09/02 A2963 RMK A01 T00850016  RH  062%=      5-min Rain = 0
KNH1 110251Z 24014KT 08/02 A2963 RMK A01 T00840016  RH  062%=      5-min Rain = 0
KNH1 110252Z 24014KT 08/02 A2963 RMK A01 T00840017  RH  062%=      5-min Rain = 0
KNH1 110253Z 24012KT 08/02 A2963 RMK A01 T00840016  RH  062%=      5-min Rain = 0
KNH1 110254Z 24012KT 08/02 A2963 RMK A01 T00830016  RH  062%=      5-min Rain = 0
KNH1 110255Z 24012KT 08/02 A2963 RMK A01 T00830016  RH  063%=      5-min Rain = 0
KNH1 110256Z 24012KT 08/02 A2963 RMK A01 T00820016  RH  063%=      5-min Rain = 0
KNH1 110257Z 23012KT 08/02 A2963 RMK A01 T00810016  RH  063%=      5-min Rain = 0
KNH1 110258Z 23012KT 08/02 A2963 RMK A01 T00810016  RH  064%=      5-min Rain = 0
KNH1 110259Z 24012KT 08/02 A2963 RMK A01 T00810017  RH  064%=      5-min Rain = 0
KNH1 110300Z 23013KT 08/02 A2963 RMK A01 T00810017  RH  064%=      5-min Rain = 0
KNH1 110301Z 23013KT 08/02 A2963 RMK A01 T00810017  RH  064%=      5-min Rain = 0
KNH1 110302Z 23012KT 08/02 A2963 RMK A01 T00800017  RH  064%=      5-min Rain = 0
KNH1 110303Z 23013KT 08/02 A2963 RMK A01 T00810017  RH  064%=      5-min Rain = 0
KNH1 110304Z 23013KT 08/02 A2963 RMK A01 T00800017  RH  064%=      5-min Rain = 0
KNH1 110305Z 23013KT 08/02 A2963 RMK A01 T00800017  RH  065%=      5-min Rain = 0
KNH1 110306Z 23014KT 08/02 A2963 RMK A01 T00800017  RH  065%=      5-min Rain = 0
KNH1 110307Z 23012KT 08/02 A2963 RMK A01 T00800017  RH  065%=      5-min Rain = 0
KNH1 110308Z 23013KT 08/02 A2963 RMK A01 T00800018  RH  065%=      5-min Rain = 0
KNH1 110309Z 23013KT 08/02 A2963 RMK A01 T00790018  RH  065%=      5-min Rain = 0
KNH1 110310Z 22013KT 08/02 A2963 RMK A01 T00790017  RH  065%=      5-min Rain = 0
KNH1 110311Z 23014KT 08/02 A2963 RMK A01 T00790017  RH  065%=      5-min Rain = 0
KNH1 110312Z 23014KT 08/02 A2963 RMK A01 T00780017  RH  065%=      5-min Rain = 0
KNH1 110313Z 22012KT 08/02 A2963 RMK A01 T00780018  RH  065%=      5-min Rain = 0
KNH1 110314Z 23012KT 08/02 A2963 RMK A01 T00780017  RH  065%=      5-min Rain = 0
KNH1 110315Z 22012KT 08/02 A2963 RMK A01 T00780018  RH  066%=      5-min Rain = 0
KNH1 110316Z 22013KT 08/02 A2963 RMK A01 T00780018  RH  066%=      5-min Rain = 0
KNH1 110317Z 22013KT 08/02 A2963 RMK A01 T00780018  RH  066%=      5-min Rain = 0
KNH1 110318Z 22013KT 08/02 A2964 RMK A01 T00780018  RH  066%=      5-min Rain = 0
KNH1 110319Z 22013KT 08/02 A2964 RMK A01 T00770017  RH  066%=      5-min Rain = 0
KNH1 110320Z 22013KT 08/02 A2964 RMK A01 T00770017  RH  066%=      5-min Rain = 0
KNH1 110321Z 22014KT 08/02 A2964 RMK A01 T00760018  RH  066%=      5-min Rain = 0
KNH1 110322Z 22015KT 08/02 A2964 RMK A01 T00760017  RH  066%=      5-min Rain = 0
KNH1 110323Z 22013KT 08/02 A2964 RMK A01 T00760018  RH  066%=      5-min Rain = 0
KNH1 110324Z 22014KT 08/02 A2964 RMK A01 T00760018  RH  066%=      5-min Rain = 0
KNH1 110325Z 22014KT 08/02 A2964 RMK A01 T00760018  RH  066%=      5-min Rain = 0
KNH1 110326Z 22014KT 08/02 A2963 RMK A01 T00760017  RH  066%=      5-min Rain = 0
KNH1 110327Z 22012KT 08/02 A2963 RMK A01 T00760018  RH  066%=      5-min Rain = 0
KNH1 110328Z 22014KT 08/02 A2963 RMK A01 T00750017  RH  066%=      5-min Rain = 0
KNH1 110329Z 22012KT 08/02 A2963 RMK A01 T00750018  RH  067%=      5-min Rain = 0
KNH1 110330Z 22013KT 08/02 A2963 RMK A01 T00750018  RH  067%=      5-min Rain = 0
KNH1 110331Z 22013KT 08/02 A2963 RMK A01 T00750018  RH  067%=      5-min Rain = 0
KNH1 110332Z 22013KT 08/02 A2963 RMK A01 T00750017  RH  067%=      5-min Rain = 0
KNH1 110333Z 22012KT 07/02 A2963 RMK A01 T00740018  RH  067%=      5-min Rain = 0
KNH1 110334Z 22013KT 07/02 A2963 RMK A01 T00740017  RH  067%=      5-min Rain = 0
KNH1 110335Z 22014KT 08/02 A2963 RMK A01 T00750018  RH  067%=      5-min Rain = 0
KNH1 110336Z 22013KT 08/02 A2963 RMK A01 T00750018  RH  067%=      5-min Rain = 0
KNH1 110337Z 22015KT 08/02 A2963 RMK A01 T00750018  RH  067%=      5-min Rain = 0
KNH1 110338Z 22014KT 08/02 A2963 RMK A01 T00760018  RH  067%=      5-min Rain = 0
KNH1 110339Z 22014KT 08/02 A2963 RMK A01 T00760018  RH  067%=      5-min Rain = 0
KNH1 110340Z 22015KT 08/02 A2963 RMK A01 T00760018  RH  067%=      5-min Rain = 0
KNH1 110341Z 22015KT 08/02 A2963 RMK A01 T00770019  RH  067%=      5-min Rain = 0
KNH1 110342Z 22016KT 08/02 A2963 RMK A01 T00770019  RH  067%=      5-min Rain = 0
KNH1 110343Z 22015KT 08/02 A2963 RMK A01 T00770018  RH  066%=      5-min Rain = 0
KNH1 110344Z 22014KT 08/02 A2963 RMK A01 T00770018  RH  066%=      5-min Rain = 0
KNH1 110345Z 22016KT 08/02 A2963 RMK A01 T00770018  RH  066%=      5-min Rain = 0
KNH1 110346Z 23015KT 08/02 A2963 RMK A01 T00770018  RH  066%=      5-min Rain = 0
KNH1 110347Z 23015KT 08/02 A2963 RMK A01 T00770018  RH  066%=      5-min Rain = 0
KNH1 110348Z 23014KT 08/02 A2963 RMK A01 T00770017  RH  066%=      5-min Rain = 0
KNH1 110349Z 22017KT 08/02 A2963 RMK A01 T00770017  RH  066%=      5-min Rain = 0
KNH1 110350Z 23015KT 08/02 A2963 RMK A01 T00770017  RH  066%=      5-min Rain = 0
KNH1 110351Z 23015KT 08/02 A2963 RMK A01 T00770017  RH  066%=      5-min Rain = 0
KNH1 110352Z 23016KT 08/02 A2963 RMK A01 T00780017  RH  065%=      5-min Rain = 0
KNH1 110353Z 22015KT 08/02 A2963 RMK A01 T00780017  RH  065%=      5-min Rain = 0
KNH1 110354Z 23016KT 08/02 A2963 RMK A01 T00790017  RH  065%=      5-min Rain = 0
KNH1 110355Z 23016KT 08/02 A2963 RMK A01 T00790017  RH  065%=      5-min Rain = 0
KNH1 110356Z 23016KT 08/02 A2963 RMK A01 T00790017  RH  065%=      5-min Rain = 0
KNH1 110357Z 23016KT 08/02 A2963 RMK A01 T00790016  RH  064%=      5-min Rain = 0
KNH1 110358Z 23015KT 08/02 A2963 RMK A01 T00800016  RH  064%=      5-min Rain = 0
KNH1 110359Z 23015KT 08/02 A2963 RMK A01 T00800016  RH  064%=      5-min Rain = 0
KNH1 110400Z 23015KT 08/02 A2963 RMK A01 T00810015  RH  063%=      5-min Rain = 0
KNH1 110401Z 23016KT 08/02 A2963 RMK A01 T00810015  RH  063%=      5-min Rain = 0
KNH1 110402Z 23015KT 08/02 A2963 RMK A01 T00810015  RH  063%=      5-min Rain = 0
KNH1 110403Z 23014KT 08/02 A2963 RMK A01 T00800015  RH  063%=      5-min Rain = 0
KNH1 110404Z 23014KT 08/02 A2963 RMK A01 T00790015  RH  064%=      5-min Rain = 0
KNH1 110405Z 23014KT 08/02 A2963 RMK A01 T00790015  RH  064%=      5-min Rain = 0
KNH1 110406Z 23015KT 08/01 A2963 RMK A01 T00790014  RH  064%=      5-min Rain = 0
KNH1 110407Z 23016KT 08/02 A2963 RMK A01 T00790015  RH  064%=      5-min Rain = 0
KNH1 110408Z 23015KT 08/02 A2963 RMK A01 T00790015  RH  064%=      5-min Rain = 0
KNH1 110409Z 23016KT 08/01 A2963 RMK A01 T00790014  RH  064%=      5-min Rain = 0
KNH1 110410Z 23017KT 08/02 A2963 RMK A01 T00790015  RH  064%=      5-min Rain = 0
KNH1 110411Z 23015KT 08/01 A2963 RMK A01 T00790014  RH  064%=      5-min Rain = 0
KNH1 110412Z 24016KT 08/01 A2963 RMK A01 T00790014  RH  064%=      5-min Rain = 0
KNH1 110413Z 24016KT 08/02 A2963 RMK A01 T00790015  RH  064%=      5-min Rain = 0
KNH1 110414Z 24015KT 08/02 A2963 RMK A01 T00790015  RH  064%=      5-min Rain = 0
KNH1 110415Z 24016KT 08/02 A2962 RMK A01 T00790015  RH  064%=      5-min Rain = 0
KNH1 110416Z 24018KT 08/02 A2962 RMK A01 T00800016  RH  064%=      5-min Rain = 0
KNH1 110417Z 24019KT 08/02 A2962 RMK A01 T00810017  RH  064%=      5-min Rain = 0
KNH1 110418Z 24016KT 08/02 A2962 RMK A01 T00820017  RH  063%=      5-min Rain = 0
KNH1 110419Z 24016KT 08/02 A2962 RMK A01 T00830017  RH  063%=      5-min Rain = 0
KNH1 110420Z 24018KT 08/02 A2962 RMK A01 T00830016  RH  063%=      5-min Rain = 0
KNH1 110421Z 24018KT 08/02 A2962 RMK A01 T00830017  RH  063%=      5-min Rain = 0
KNH1 110422Z 23017KT 08/02 A2962 RMK A01 T00840017  RH  063%=      5-min Rain = 0
KNH1 110423Z 24015KT 08/02 A2962 RMK A01 T00840017  RH  063%=      5-min Rain = 0
KNH1 110424Z 23016KT 08/02 A2962 RMK A01 T00840017  RH  063%=      5-min Rain = 0
KNH1 110425Z 23017KT 08/02 A2962 RMK A01 T00840017  RH  063%=      5-min Rain = 0
KNH1 110426Z 23016KT 08/02 A2963 RMK A01 T00840017  RH  063%=      5-min Rain = 0
KNH1 110427Z 23016KT 08/02 A2963 RMK A01 T00840017  RH  063%=      5-min Rain = 0
KNH1 110428Z 23016KT 08/02 A2963 RMK A01 T00840017  RH  063%=      5-min Rain = 0
KNH1 110429Z 23015KT 08/02 A2963 RMK A01 T00840017  RH  063%=      5-min Rain = 0
KNH1 110430Z 23014KT 08/02 A2963 RMK A01 T00830017  RH  063%=      5-min Rain = 0
KNH1 110431Z 23014KT 08/02 A2963 RMK A01 T00830017  RH  063%=      5-min Rain = 0
KNH1 110432Z 23015KT 08/02 A2963 RMK A01 T00820017  RH  064%=      5-min Rain = 0
KNH1 110433Z 23014KT 08/02 A2963 RMK A01 T00820017  RH  064%=      5-min Rain = 0
KNH1 110434Z 23014KT 08/02 A2963 RMK A01 T00820017  RH  064%=      5-min Rain = 0
KNH1 110435Z 23016KT 08/02 A2963 RMK A01 T00820017  RH  064%=      5-min Rain = 0
KNH1 110436Z 23015KT 08/02 A2963 RMK A01 T00820018  RH  064%=      5-min Rain = 0
KNH1 110437Z 23015KT 08/02 A2963 RMK A01 T00820018  RH  064%=      5-min Rain = 0
KNH1 110438Z 23014KT 08/02 A2963 RMK A01 T00810017  RH  064%=      5-min Rain = 0
KNH1 110439Z 23014KT 08/02 A2963 RMK A01 T00810017  RH  064%=      5-min Rain = 0
KNH1 110440Z 23015KT 08/02 A2963 RMK A01 T00800017  RH  064%=      5-min Rain = 0
KNH1 110441Z 23014KT 08/02 A2963 RMK A01 T00800018  RH  065%=      5-min Rain = 0
KNH1 110442Z 23015KT 08/02 A2963 RMK A01 T00800017  RH  064%=      5-min Rain = 0
KNH1 110443Z 23014KT 08/02 A2963 RMK A01 T00790017  RH  065%=      5-min Rain = 0
KNH1 110444Z 23014KT 08/02 A2963 RMK A01 T00780017  RH  065%=      5-min Rain = 0
KNH1 110445Z 23014KT 08/02 A2964 RMK A01 T00780017  RH  065%=      5-min Rain = 0
KNH1 110446Z 22013KT 08/02 A2963 RMK A01 T00780017  RH  066%=      5-min Rain = 0
KNH1 110447Z 22013KT 08/02 A2964 RMK A01 T00770017  RH  066%=      5-min Rain = 0
KNH1 110448Z 23014KT 08/02 A2964 RMK A01 T00760017  RH  066%=      5-min Rain = 0
KNH1 110449Z 23013KT 08/02 A2964 RMK A01 T00760017  RH  066%=      5-min Rain = 0
KNH1 110450Z 22013KT 08/02 A2964 RMK A01 T00750017  RH  066%=      5-min Rain = 0
KNH1 110451Z 22013KT 08/02 A2964 RMK A01 T00750017  RH  067%=      5-min Rain = 0
KNH1 110452Z 22012KT 08/02 A2964 RMK A01 T00750017  RH  067%=      5-min Rain = 0
KNH1 110453Z 22011KT 07/02 A2964 RMK A01 T00740016  RH  067%=      5-min Rain = 0
KNH1 110454Z 22013KT 07/02 A2964 RMK A01 T00740017  RH  067%=      5-min Rain = 0
KNH1 110455Z 22014KT 07/02 A2964 RMK A01 T00730017  RH  067%=      5-min Rain = 0
KNH1 110456Z 22015KT 07/02 A2964 RMK A01 T00730017  RH  067%=      5-min Rain = 0
KNH1 110457Z 22014KT 07/02 A2964 RMK A01 T00740017  RH  067%=      5-min Rain = 0
KNH1 110458Z 22014KT 07/02 A2964 RMK A01 T00740016  RH  067%=      5-min Rain = 0
KNH1 110459Z 22015KT 07/02 A2964 RMK A01 T00740016  RH  067%=      5-min Rain = 0
KNH1 110500Z 22014KT 07/02 A2964 RMK A01 T00740016  RH  067%=      5-min Rain = 0
KNH1 110501Z 22014KT 07/02 A2964 RMK A01 T00740016  RH  067%=      5-min Rain = 0
KNH1 110502Z 22016KT 07/02 A2964 RMK A01 T00740016  RH  067%=      5-min Rain = 0
KNH1 110503Z 22016KT 07/02 A2964 RMK A01 T00740016  RH  067%=      5-min Rain = 0
KNH1 110504Z 22014KT 07/02 A2964 RMK A01 T00740016  RH  067%=      5-min Rain = 0
KNH1 110505Z 22014KT 07/02 A2964 RMK A01 T00730015  RH  067%=      5-min Rain = 0
KNH1 110506Z 22014KT 07/02 A2964 RMK A01 T00730015  RH  067%=      5-min Rain = 0
KNH1 110507Z 22013KT 07/02 A2964 RMK A01 T00720015  RH  067%=      5-min Rain = 0
KNH1 110508Z 22013KT 07/02 A2964 RMK A01 T00720015  RH  067%=      5-min Rain = 0
KNH1 110509Z 21013KT 07/02 A2964 RMK A01 T00720015  RH  067%=      5-min Rain = 0
KNH1 110510Z 21013KT 07/02 A2964 RMK A01 T00710015  RH  068%=      5-min Rain = 0
KNH1 110511Z 21013KT 07/02 A2964 RMK A01 T00700015  RH  068%=      5-min Rain = 0
KNH1 110512Z 21012KT 07/02 A2964 RMK A01 T00690015  RH  068%=      5-min Rain = 0
KNH1 110513Z 21012KT 07/02 A2964 RMK A01 T00690015  RH  069%=      5-min Rain = 0
KNH1 110514Z 21013KT 07/02 A2964 RMK A01 T00680015  RH  069%=      5-min Rain = 0
KNH1 110515Z 21013KT 07/02 A2964 RMK A01 T00680015  RH  069%=      5-min Rain = 0
KNH1 110516Z 21014KT 07/02 A2964 RMK A01 T00680015  RH  069%=      5-min Rain = 0
KNH1 110517Z 22015KT 07/02 A2964 RMK A01 T00680015  RH  069%=      5-min Rain = 0
KNH1 110518Z 22015KT 07/02 A2964 RMK A01 T00680015  RH  069%=      5-min Rain = 0
KNH1 110519Z 22014KT 07/01 A2964 RMK A01 T00690014  RH  068%=      5-min Rain = 0
KNH1 110520Z 22015KT 07/01 A2964 RMK A01 T00690014  RH  068%=      5-min Rain = 0
KNH1 110521Z 22016KT 07/01 A2963 RMK A01 T00690014  RH  068%=      5-min Rain = 0
KNH1 110522Z 22015KT 07/01 A2963 RMK A01 T00690013  RH  068%=      5-min Rain = 0
KNH1 110523Z 22015KT 07/01 A2964 RMK A01 T00690013  RH  067%=      5-min Rain = 0
KNH1 110524Z 22016KT 07/01 A2963 RMK A01 T00700013  RH  067%=      5-min Rain = 0
KNH1 110525Z 22015KT 07/01 A2963 RMK A01 T00710013  RH  067%=      5-min Rain = 0
KNH1 110526Z 22015KT 07/01 A2963 RMK A01 T00710013  RH  067%=      5-min Rain = 0
KNH1 110527Z 22016KT 07/01 A2963 RMK A01 T00710012  RH  066%=      5-min Rain = 0
KNH1 110528Z 22015KT 07/01 A2963 RMK A01 T00710012  RH  066%=      5-min Rain = 0
KNH1 110529Z 22015KT 07/01 A2963 RMK A01 T00710012  RH  066%=      5-min Rain = 0
KNH1 110530Z 23015KT 07/01 A2964 RMK A01 T00710011  RH  066%=      5-min Rain = 0
KNH1 110531Z 23015KT 07/01 A2964 RMK A01 T00700011  RH  066%=      5-min Rain = 0
KNH1 110532Z 23015KT 07/01 A2964 RMK A01 T00700011  RH  066%=      5-min Rain = 0
KNH1 110533Z 23015KT 07/01 A2964 RMK A01 T00700011  RH  066%=      5-min Rain = 0
KNH1 110534Z 23015KT 07/01 A2964 RMK A01 T00700010  RH  066%=      5-min Rain = 0
KNH1 110535Z 23016KT 07/01 A2964 RMK A01 T00700010  RH  065%=      5-min Rain = 0
KNH1 110536Z 23015KT 07/01 A2964 RMK A01 T00720011  RH  065%=      5-min Rain = 0
KNH1 110537Z 23016KT 07/01 A2964 RMK A01 T00720010  RH  065%=      5-min Rain = 0
KNH1 110538Z 23015KT 07/01 A2964 RMK A01 T00730010  RH  064%=      5-min Rain = 0
KNH1 110539Z 23014KT 07/01 A2964 RMK A01 T00730009  RH  064%=      5-min Rain = 0
KNH1 110540Z 23015KT 07/01 A2964 RMK A01 T00730009  RH  064%=      5-min Rain = 0
KNH1 110541Z 23017KT 07/01 A2964 RMK A01 T00730009  RH  064%=      5-min Rain = 0
KNH1 110542Z 23015KT 07/01 A2964 RMK A01 T00740009  RH  063%=      5-min Rain = 0
KNH1 110543Z 23016KT 08/01 A2964 RMK A01 T00750009  RH  063%=      5-min Rain = 0
KNH1 110544Z 23017KT 08/01 A2964 RMK A01 T00750009  RH  063%=      5-min Rain = 0
KNH1 110545Z 23015KT 08/01 A2964 RMK A01 T00750009  RH  063%=      5-min Rain = 0
KNH1 110546Z 23017KT 08/01 A2964 RMK A01 T00760008  RH  062%=      5-min Rain = 0
KNH1 110547Z 23017KT 08/01 A2964 RMK A01 T00760008  RH  062%=      5-min Rain = 0
KNH1 110548Z 24017KT 08/01 A2964 RMK A01 T00760008  RH  062%=      5-min Rain = 0
KNH1 110549Z 23018KT 08/01 A2964 RMK A01 T00760008  RH  062%=      5-min Rain = 0
KNH1 110550Z 23018KT 08/01 A2964 RMK A01 T00770008  RH  062%=      5-min Rain = 0
KNH1 110551Z 23015KT 08/01 A2964 RMK A01 T00770008  RH  062%=      5-min Rain = 0
KNH1 110552Z 23017KT 08/01 A2964 RMK A01 T00760007  RH  062%=      5-min Rain = 0
KNH1 110553Z 23017KT 08/01 A2964 RMK A01 T00760008  RH  062%=      5-min Rain = 0
KNH1 110554Z 23018G24KT 08/01 A2964 RMK A01 T00770008  RH  062%=      5-min Rain = 0
KNH1 110555Z 23019KT 08/01 A2964 RMK A01 T00770008  RH  061%=      5-min Rain = 0
KNH1 110556Z 23017KT 08/01 A2964 RMK A01 T00780008  RH  061%=      5-min Rain = 0
KNH1 110557Z 23018KT 08/01 A2964 RMK A01 T00770007  RH  061%=      5-min Rain = 0
KNH1 110558Z 23017KT 08/01 A2964 RMK A01 T00770007  RH  061%=      5-min Rain = 0
KNH1 110559Z 23018KT 08/01 A2964 RMK A01 T00770007  RH  061%=      5-min Rain = 0

Page generated in 0.0993 seconds.